Observation data for Coyanosa on 04/16/2021      Previous  Date  Next       Current Mesonet Observations  Soil Data  Daily Summary Page  Observations in Plain Language
KCO1 160500Z 03005KT 14/14 A2986 RMK A01 T01440141  RH  098%=      5-min Rain = 0
KCO1 160501Z 03005KT 14/14 A2986 RMK A01 T01440141  RH  098%=      5-min Rain = 0
KCO1 160502Z 04005KT 14/14 A2986 RMK A01 T01440141  RH  098%=      5-min Rain = 0
KCO1 160503Z 04005KT 14/14 A2986 RMK A01 T01440141  RH  098%=      5-min Rain = 0
KCO1 160504Z 04005KT 14/14 A2986 RMK A01 T01440141  RH  098%=      5-min Rain = 0
KCO1 160505Z 04006KT 14/14 A2985 RMK A01 T01440141  RH  098%=      5-min Rain = 0
KCO1 160506Z 04004KT 14/14 A2985 RMK A01 T01440141  RH  098%=      5-min Rain = 0
KCO1 160507Z 04005KT 14/14 A2985 RMK A01 T01430141  RH  099%=      5-min Rain = 0
KCO1 160508Z 04005KT 14/14 A2985 RMK A01 T01440142  RH  099%=      5-min Rain = 0
KCO1 160509Z 05004KT 14/14 A2985 RMK A01 T01430141  RH  099%=      5-min Rain = 0
KCO1 160510Z 05005KT 14/14 A2985 RMK A01 T01430141  RH  099%=      5-min Rain = 0
KCO1 160511Z 05006KT 14/14 A2985 RMK A01 T01440142  RH  099%=      5-min Rain = 0
KCO1 160512Z 06005KT 14/14 A2985 RMK A01 T01430142  RH  099%=      5-min Rain = 0
KCO1 160513Z 06006KT 14/14 A2985 RMK A01 T01440142  RH  099%=      5-min Rain = 0
KCO1 160514Z 06005KT 14/14 A2985 RMK A01 T01440142  RH  099%=      5-min Rain = 0
KCO1 160515Z 06005KT 14/14 A2985 RMK A01 T01440143  RH  099%=      5-min Rain = 0
KCO1 160516Z 06007KT 14/14 A2985 RMK A01 T01440143  RH  099%=      5-min Rain = 0
KCO1 160517Z 06007KT 14/14 A2985 RMK A01 T01440143  RH  099%=      5-min Rain = 0
KCO1 160518Z 06006KT 14/14 A2985 RMK A01 T01430143  RH  099%=      5-min Rain = 0
KCO1 160519Z 06006KT 14/14 A2985 RMK A01 T01430142  RH  099%=      5-min Rain = 0
KCO1 160520Z 06006KT 14/14 A2985 RMK A01 T01430143  RH  099%=      5-min Rain = 0
KCO1 160521Z 06006KT 14/14 A2985 RMK A01 T01430142  RH  099%=      5-min Rain = 0
KCO1 160522Z 06007KT 14/14 A2985 RMK A01 T01430143  RH  100%=      5-min Rain = 0
KCO1 160523Z 06007KT 14/14 A2985 RMK A01 T01430142  RH  100%=      5-min Rain = 0
KCO1 160524Z 07006KT 14/14 A2984 RMK A01 T01430142  RH  100%=      5-min Rain = 0
KCO1 160525Z 07005KT 14/14 A2984 RMK A01 T01430143  RH  100%=      5-min Rain = 0
KCO1 160526Z 07006KT 14/14 A2984 RMK A01 T01430143  RH  100%=      5-min Rain = 0
KCO1 160527Z 07006KT 14/14 A2984 RMK A01 T01430143  RH  100%=      5-min Rain = 0
KCO1 160528Z 07006KT 14/14 A2984 RMK A01 T01430143  RH  100%=      5-min Rain = 0
KCO1 160529Z 07006KT 14/14 A2984 RMK A01 T01430142  RH  100%=      5-min Rain = 0
KCO1 160530Z 07007KT 14/14 A2984 RMK A01 T01430143  RH  100%=      5-min Rain = 0
KCO1 160531Z 06007KT 14/14 A2984 RMK A01 T01430143  RH  100%=      5-min Rain = 0
KCO1 160532Z 07008KT 14/14 A2984 RMK A01 T01430143  RH  100%=      5-min Rain = 0
KCO1 160533Z 07007KT 14/14 A2984 RMK A01 T01420142  RH  100%=      5-min Rain = 0
KCO1 160534Z 07006KT 14/14 A2984 RMK A01 T01420142  RH  100%=      5-min Rain = 0
KCO1 160535Z 07006KT 14/14 A2984 RMK A01 T01420142  RH  100%=      5-min Rain = 0
KCO1 160536Z 07006KT 14/14 A2984 RMK A01 T01420142  RH  100%=      5-min Rain = 0
KCO1 160537Z 07007KT 14/14 A2984 RMK A01 T01420143  RH  100%=      5-min Rain = 0
KCO1 160538Z 07008KT 14/14 A2984 RMK A01 T01420142  RH  100%=      5-min Rain = 0
KCO1 160539Z 07007KT 14/14 A2984 RMK A01 T01420142  RH  100%=      5-min Rain = 0
KCO1 160540Z 07006KT 14/14 A2984 RMK A01 T01430143  RH  100%=      5-min Rain = 0
KCO1 160541Z 07006KT 14/14 A2984 RMK A01 T01420143  RH  100%=      5-min Rain = 0
KCO1 160542Z 07007KT 14/14 A2984 RMK A01 T01420143  RH  100%=      5-min Rain = 0
KCO1 160543Z 07007KT 14/14 A2984 RMK A01 T01420142  RH  100%=      5-min Rain = 0
KCO1 160544Z 08005KT 14/14 A2984 RMK A01 T01420142  RH  100%=      5-min Rain = 0
KCO1 160545Z 08006KT 14/14 A2984 RMK A01 T01420142  RH  100%=      5-min Rain = 0
KCO1 160546Z 08007KT 14/14 A2984 RMK A01 T01420142  RH  100%=      5-min Rain = 0
KCO1 160547Z 08007KT 14/14 A2984 RMK A01 T01420143  RH  100%=      5-min Rain = 0
KCO1 160548Z 08006KT 14/14 A2984 RMK A01 T01420143  RH  100%=      5-min Rain = 0
KCO1 160549Z 08006KT 14/14 A2984 RMK A01 T01430143  RH  100%=      5-min Rain = 0
KCO1 160550Z 07006KT 14/14 A2984 RMK A01 T01420142  RH  100%=      5-min Rain = 0
KCO1 160551Z 08005KT 14/14 A2984 RMK A01 T01420143  RH  100%=      5-min Rain = 0
KCO1 160552Z 07006KT 14/14 A2984 RMK A01 T01420143  RH  100%=      5-min Rain = 0
KCO1 160553Z 07006KT 14/14 A2984 RMK A01 T01420143  RH  100%=      5-min Rain = 0
KCO1 160554Z 07005KT 14/14 A2984 RMK A01 T01420142  RH  100%=      5-min Rain = 0
KCO1 160555Z 07005KT 14/14 A2984 RMK A01 T01430143  RH  100%=      5-min Rain = 0
KCO1 160556Z 07006KT 14/14 A2984 RMK A01 T01430143  RH  100%=      5-min Rain = 0
KCO1 160557Z 07004KT 14/14 A2984 RMK A01 T01430143  RH  100%=      5-min Rain = 0
KCO1 160558Z 07004KT 14/14 A2984 RMK A01 T01430143  RH  100%=      5-min Rain = 0
KCO1 160559Z 07005KT 14/14 A2984 RMK A01 T01430143  RH  100%=      5-min Rain = 0
KCO1 160600Z 07005KT 14/14 A2984 RMK A01 T01430143  RH  100%=      5-min Rain = 0
KCO1 160601Z 07005KT 14/14 A2984 RMK A01 T01430143  RH  100%=      5-min Rain = 0
KCO1 160602Z 07005KT 14/14 A2984 RMK A01 T01430143  RH  100%=      5-min Rain = 0
KCO1 160603Z 07006KT 14/14 A2984 RMK A01 T01430143  RH  100%=      5-min Rain = 0
KCO1 160604Z 07006KT 14/14 A2984 RMK A01 T01430143  RH  100%=      5-min Rain = 0
KCO1 160605Z 07006KT 14/14 A2984 RMK A01 T01430143  RH  100%=      5-min Rain = 0
KCO1 160606Z 07006KT 14/14 A2984 RMK A01 T01430143  RH  100%=      5-min Rain = 0
KCO1 160607Z 07006KT 14/14 A2984 RMK A01 T01430143  RH  100%=      5-min Rain = 0
KCO1 160608Z 07007KT 14/14 A2984 RMK A01 T01430143  RH  100%=      5-min Rain = 0
KCO1 160609Z 08006KT 14/14 A2984 RMK A01 T01430143  RH  100%=      5-min Rain = 0
KCO1 160610Z 07005KT 14/14 A2984 RMK A01 T01430143  RH  100%=      5-min Rain = 0
KCO1 160611Z 08004KT 14/14 A2984 RMK A01 T01430144  RH  100%=      5-min Rain = 0
KCO1 160612Z 08004KT 14/14 A2984 RMK A01 T01430143  RH  100%=      5-min Rain = 0
KCO1 160613Z 07004KT 14/14 A2984 RMK A01 T01430143  RH  100%=      5-min Rain = 0
KCO1 160614Z 07005KT 14/14 A2984 RMK A01 T01430143  RH  100%=      5-min Rain = 0
KCO1 160615Z 06004KT 14/14 A2984 RMK A01 T01430143  RH  100%=      5-min Rain = 0
KCO1 160616Z 06005KT 14/14 A2984 RMK A01 T01430143  RH  100%=      5-min Rain = 0
KCO1 160617Z 05003KT 14/14 A2984 RMK A01 T01430143  RH  100%=      5-min Rain = 0
KCO1 160618Z 05003KT 14/14 A2984 RMK A01 T01440144  RH  100%=      5-min Rain = 0
KCO1 160619Z 06003KT 14/14 A2984 RMK A01 T01440144  RH  100%=      5-min Rain = 0
KCO1 160620Z 06003KT 14/14 A2984 RMK A01 T01440144  RH  100%=      5-min Rain = 0
KCO1 160621Z 07003KT 14/14 A2984 RMK A01 T01440144  RH  100%=      5-min Rain = 0
KCO1 160622Z 07004KT 14/14 A2984 RMK A01 T01430144  RH  100%=      5-min Rain = 0
KCO1 160623Z 07004KT 14/14 A2984 RMK A01 T01440144  RH  100%=      5-min Rain = 0
KCO1 160624Z 08005KT 14/14 A2984 RMK A01 T01440144  RH  100%=      5-min Rain = 0
KCO1 160625Z 08005KT 14/14 A2984 RMK A01 T01440144  RH  100%=      5-min Rain = 0
KCO1 160626Z 08005KT 14/14 A2984 RMK A01 T01440144  RH  100%=      5-min Rain = 0
KCO1 160627Z 08005KT 14/14 A2984 RMK A01 T01440144  RH  100%=      5-min Rain = 0
KCO1 160628Z 08005KT 14/14 A2984 RMK A01 T01440144  RH  100%=      5-min Rain = 0
KCO1 160629Z 08004KT 14/14 A2984 RMK A01 T01440144  RH  100%=      5-min Rain = 0
KCO1 160630Z 08004KT 14/14 A2984 RMK A01 T01440144  RH  100%=      5-min Rain = 0
KCO1 160631Z 07003KT 14/14 A2984 RMK A01 T01440144  RH  100%=      5-min Rain = 0
KCO1 160632Z 08003KT 14/14 A2984 RMK A01 T01440144  RH  100%=      5-min Rain = 0
KCO1 160633Z 08004KT 14/14 A2984 RMK A01 T01440144  RH  100%=      5-min Rain = 0
KCO1 160634Z 06004KT 14/14 A2984 RMK A01 T01440144  RH  100%=      5-min Rain = 0
KCO1 160635Z 07004KT 14/14 A2983 RMK A01 T01440144  RH  100%=      5-min Rain = 0
KCO1 160636Z 06004KT 14/14 A2983 RMK A01 T01440144  RH  100%=      5-min Rain = 0
KCO1 160637Z 07004KT 14/14 A2983 RMK A01 T01440144  RH  100%=      5-min Rain = 0
KCO1 160638Z 06003KT 14/14 A2983 RMK A01 T01440144  RH  100%=      5-min Rain = 0
KCO1 160639Z 07003KT 14/14 A2983 RMK A01 T01440144  RH  100%=      5-min Rain = 0
KCO1 160640Z 07003KT 14/14 A2983 RMK A01 T01440144  RH  100%=      5-min Rain = 0
KCO1 160641Z 06003KT 14/14 A2983 RMK A01 T01440144  RH  100%=      5-min Rain = 0
KCO1 160642Z 07003KT 14/14 A2983 RMK A01 T01440144  RH  100%=      5-min Rain = 0
KCO1 160643Z 07004KT 14/14 A2983 RMK A01 T01440144  RH  100%=      5-min Rain = 0
KCO1 160644Z 07003KT 14/14 A2983 RMK A01 T01440144  RH  100%=      5-min Rain = 0
KCO1 160645Z 08003KT 14/14 A2984 RMK A01 T01440144  RH  100%=      5-min Rain = 0
KCO1 160646Z 08004KT 14/14 A2984 RMK A01 T01440144  RH  100%=      5-min Rain = 0
KCO1 160647Z 08003KT 14/15 A2984 RMK A01 T01440145  RH  100%=      5-min Rain = 0
KCO1 160648Z 07003KT 14/15 A2984 RMK A01 T01440145  RH  100%=      5-min Rain = 0
KCO1 160649Z 08003KT 15/15 A2984 RMK A01 T01450145  RH  100%=      5-min Rain = 0
KCO1 160650Z 08003KT 15/15 A2984 RMK A01 T01450145  RH  100%=      5-min Rain = 0
KCO1 160651Z 07002KT 15/15 A2984 RMK A01 T01450145  RH  100%=      5-min Rain = 0
KCO1 160652Z 07002KT 15/15 A2984 RMK A01 T01450145  RH  100%=      5-min Rain = 0
KCO1 160653Z 07002KT 15/15 A2984 RMK A01 T01450145  RH  100%=      5-min Rain = 0
KCO1 160654Z 06001KT 15/15 A2984 RMK A01 T01450145  RH  100%=      5-min Rain = 0
KCO1 160655Z 06001KT 15/15 A2984 RMK A01 T01450145  RH  100%=      5-min Rain = 0
KCO1 160656Z 04001KT 15/15 A2984 RMK A01 T01450145  RH  100%=      5-min Rain = 0
KCO1 160657Z 05002KT 15/15 A2984 RMK A01 T01450145  RH  100%=      5-min Rain = 0
KCO1 160658Z 05002KT 15/15 A2984 RMK A01 T01450145  RH  100%=      5-min Rain = 0
KCO1 160659Z 05002KT 15/15 A2984 RMK A01 T01450145  RH  100%=      5-min Rain = 0
KCO1 160700Z 02002KT 14/15 A2984 RMK A01 T01440145  RH  100%=      5-min Rain = 0
KCO1 160701Z 02002KT 15/15 A2984 RMK A01 T01450145  RH  100%=      5-min Rain = 0
KCO1 160702Z 01002KT 15/15 A2984 RMK A01 T01450145  RH  100%=      5-min Rain = 0
KCO1 160703Z 01002KT 15/15 A2984 RMK A01 T01450145  RH  100%=      5-min Rain = 0
KCO1 160704Z 36001KT 15/15 A2984 RMK A01 T01450145  RH  100%=      5-min Rain = 0
KCO1 160705Z 00002KT 15/15 A2984 RMK A01 T01450145  RH  100%=      5-min Rain = 0
KCO1 160706Z 01002KT 15/15 A2984 RMK A01 T01450145  RH  100%=      5-min Rain = 0
KCO1 160707Z 01001KT 15/15 A2984 RMK A01 T01450145  RH  100%=      5-min Rain = 0
KCO1 160708Z 35002KT 15/15 A2984 RMK A01 T01450145  RH  100%=      5-min Rain = 0
KCO1 160709Z 35002KT 15/15 A2984 RMK A01 T01450145  RH  100%=      5-min Rain = 0
KCO1 160710Z 34002KT 15/15 A2984 RMK A01 T01450145  RH  100%=      5-min Rain = 0
KCO1 160711Z 35003KT 15/15 A2984 RMK A01 T01450145  RH  100%=      5-min Rain = 0
KCO1 160712Z 36003KT 15/15 A2984 RMK A01 T01450145  RH  100%=      5-min Rain = 0
KCO1 160713Z 36003KT 15/15 A2984 RMK A01 T01450145  RH  100%=      5-min Rain = 0
KCO1 160714Z 35003KT 15/15 A2984 RMK A01 T01450145  RH  100%=      5-min Rain = 0
KCO1 160715Z 35004KT 15/15 A2984 RMK A01 T01450145  RH  100%=      5-min Rain = 0
KCO1 160716Z 35003KT 15/15 A2984 RMK A01 T01450145  RH  100%=      5-min Rain = 0
KCO1 160717Z 35002KT 15/15 A2984 RMK A01 T01450145  RH  100%=      5-min Rain = 0
KCO1 160718Z 00002KT 15/15 A2984 RMK A01 T01450145  RH  100%=      5-min Rain = 0
KCO1 160719Z 35002KT 15/15 A2984 RMK A01 T01450145  RH  100%=      5-min Rain = 0
KCO1 160720Z 01002KT 15/15 A2984 RMK A01 T01450145  RH  100%=      5-min Rain = 0
KCO1 160721Z 01003KT 15/15 A2984 RMK A01 T01450145  RH  100%=      5-min Rain = 0
KCO1 160722Z 01003KT 15/15 A2984 RMK A01 T01450145  RH  100%=      5-min Rain = 0
KCO1 160723Z 01003KT 15/15 A2984 RMK A01 T01450145  RH  100%=      5-min Rain = 0
KCO1 160724Z 01002KT 15/15 A2984 RMK A01 T01450145  RH  100%=      5-min Rain = 0
KCO1 160725Z 01002KT 15/15 A2983 RMK A01 T01450145  RH  100%=      5-min Rain = 0
KCO1 160726Z 02002KT 15/15 A2983 RMK A01 T01450145  RH  100%=      5-min Rain = 0
KCO1 160727Z 03002KT 15/15 A2983 RMK A01 T01450145  RH  100%=      5-min Rain = 0
KCO1 160728Z 04002KT 15/15 A2983 RMK A01 T01450146  RH  100%=      5-min Rain = 0
KCO1 160729Z 04002KT 15/15 A2983 RMK A01 T01460146  RH  100%=      5-min Rain = 0
KCO1 160730Z 03002KT 15/15 A2983 RMK A01 T01460146  RH  100%=      5-min Rain = 0
KCO1 160731Z 03002KT 15/15 A2983 RMK A01 T01460146  RH  100%=      5-min Rain = 0
KCO1 160732Z 04001KT 15/15 A2983 RMK A01 T01450146  RH  100%=      5-min Rain = 0
KCO1 160733Z 03001KT 15/15 A2983 RMK A01 T01460146  RH  100%=      5-min Rain = 0
KCO1 160734Z 03002KT 15/15 A2983 RMK A01 T01450146  RH  100%=      5-min Rain = 0
KCO1 160735Z 03002KT 15/15 A2983 RMK A01 T01450146  RH  100%=      5-min Rain = 0
KCO1 160736Z 03001KT 15/15 A2983 RMK A01 T01450146  RH  100%=      5-min Rain = 0
KCO1 160737Z 03001KT 15/15 A2983 RMK A01 T01450146  RH  100%=      5-min Rain = 0
KCO1 160738Z 04001KT 15/15 A2983 RMK A01 T01450146  RH  100%=      5-min Rain = 0
KCO1 160739Z 05001KT 15/15 A2983 RMK A01 T01450146  RH  100%=      5-min Rain = 0
KCO1 160740Z 06002KT 15/15 A2983 RMK A01 T01460146  RH  100%=      5-min Rain = 0
KCO1 160741Z 06002KT 15/15 A2983 RMK A01 T01450146  RH  100%=      5-min Rain = 0
KCO1 160742Z 05001KT 15/15 A2983 RMK A01 T01460146  RH  100%=      5-min Rain = 0
KCO1 160743Z 05001KT 15/15 A2983 RMK A01 T01450146  RH  100%=      5-min Rain = 0
KCO1 160744Z 05001KT 15/15 A2983 RMK A01 T01460146  RH  100%=      5-min Rain = 0
KCO1 160745Z 05001KT 15/15 A2983 RMK A01 T01460146  RH  100%=      5-min Rain = 0
KCO1 160746Z 05001KT 15/15 A2983 RMK A01 T01460146  RH  100%=      5-min Rain = 0
KCO1 160747Z 04002KT 15/15 A2983 RMK A01 T01460146  RH  100%=      5-min Rain = 0
KCO1 160748Z 05002KT 15/15 A2983 RMK A01 T01460146  RH  100%=      5-min Rain = 0
KCO1 160749Z 06002KT 15/15 A2983 RMK A01 T01460146  RH  100%=      5-min Rain = 0
KCO1 160750Z 07002KT 15/15 A2983 RMK A01 T01460146  RH  100%=      5-min Rain = 0
KCO1 160751Z 09003KT 15/15 A2983 RMK A01 T01460146  RH  100%=      5-min Rain = 0
KCO1 160752Z 09003KT 15/15 A2983 RMK A01 T01460146  RH  100%=      5-min Rain = 0
KCO1 160753Z 08002KT 15/15 A2983 RMK A01 T01460146  RH  100%=      5-min Rain = 0
KCO1 160754Z 07001KT 15/15 A2983 RMK A01 T01460146  RH  100%=      5-min Rain = 0
KCO1 160755Z 06001KT 15/15 A2983 RMK A01 T01460146  RH  100%=      5-min Rain = 0
KCO1 160756Z 09001KT 15/15 A2983 RMK A01 T01460146  RH  100%=      5-min Rain = 0
KCO1 160757Z 10002KT 15/15 A2983 RMK A01 T01460146  RH  100%=      5-min Rain = 0
KCO1 160758Z 09002KT 15/15 A2982 RMK A01 T01460146  RH  100%=      5-min Rain = 0
KCO1 160759Z 07001KT 15/15 A2983 RMK A01 T01460146  RH  100%=      5-min Rain = 0
KCO1 160800Z 06001KT 15/15 A2983 RMK A01 T01460146  RH  100%=      5-min Rain = 0
KCO1 160801Z 05001KT 15/15 A2983 RMK A01 T01460146  RH  100%=      5-min Rain = 0
KCO1 160802Z 05000KT 15/15 A2983 RMK A01 T01460146  RH  100%=      5-min Rain = 0
KCO1 160803Z 06001KT 15/15 A2983 RMK A01 T01460146  RH  100%=      5-min Rain = 0
KCO1 160804Z 06001KT 15/15 A2983 RMK A01 T01470147  RH  100%=      5-min Rain = 0
KCO1 160805Z 08002KT 15/15 A2983 RMK A01 T01460147  RH  100%=      5-min Rain = 0
KCO1 160806Z 08002KT 15/15 A2983 RMK A01 T01460147  RH  100%=      5-min Rain = 0
KCO1 160807Z 09001KT 15/15 A2983 RMK A01 T01470147  RH  100%=      5-min Rain = 0
KCO1 160808Z 09001KT 15/15 A2983 RMK A01 T01460146  RH  100%=      5-min Rain = 0
KCO1 160809Z 09001KT 15/15 A2982 RMK A01 T01460146  RH  100%=      5-min Rain = 0
KCO1 160810Z 09001KT 15/15 A2982 RMK A01 T01460147  RH  100%=      5-min Rain = 0
KCO1 160811Z 09001KT 15/15 A2982 RMK A01 T01460146  RH  100%=      5-min Rain = 0
KCO1 160812Z 10002KT 15/15 A2982 RMK A01 T01460146  RH  100%=      5-min Rain = 0
KCO1 160813Z 11001KT 15/15 A2982 RMK A01 T01470147  RH  100%=      5-min Rain = 0
KCO1 160814Z 11001KT 15/15 A2982 RMK A01 T01460146  RH  100%=      5-min Rain = 0
KCO1 160815Z 11000KT 15/15 A2982 RMK A01 T01470147  RH  100%=      5-min Rain = 0
KCO1 160816Z 11000KT 15/15 A2982 RMK A01 T01470147  RH  100%=      5-min Rain = 0
KCO1 160817Z 11001KT 15/15 A2982 RMK A01 T01460147  RH  100%=      5-min Rain = 0
KCO1 160818Z 11001KT 15/15 A2982 RMK A01 T01460147  RH  100%=      5-min Rain = 0
KCO1 160819Z 11001KT 15/15 A2982 RMK A01 T01460146  RH  100%=      5-min Rain = 0
KCO1 160820Z 11001KT 15/15 A2982 RMK A01 T01460147  RH  100%=      5-min Rain = 0
KCO1 160821Z 11001KT 15/15 A2982 RMK A01 T01460146  RH  100%=      5-min Rain = 0
KCO1 160822Z 11001KT 15/15 A2982 RMK A01 T01460147  RH  100%=      5-min Rain = 0
KCO1 160823Z 11001KT 15/15 A2982 RMK A01 T01460147  RH  100%=      5-min Rain = 0
KCO1 160824Z 11000KT 15/15 A2982 RMK A01 T01460147  RH  100%=      5-min Rain = 0
KCO1 160825Z 00000KT 15/15 A2982 RMK A01 T01460147  RH  100%=      5-min Rain = 0
KCO1 160826Z 11000KT 15/15 A2982 RMK A01 T01460147  RH  100%=      5-min Rain = 0
KCO1 160827Z 11001KT 15/15 A2982 RMK A01 T01470147  RH  100%=      5-min Rain = 0
KCO1 160828Z 13001KT 15/15 A2981 RMK A01 T01470147  RH  100%=      5-min Rain = 0
KCO1 160829Z 14001KT 15/15 A2981 RMK A01 T01470147  RH  100%=      5-min Rain = 0
KCO1 160830Z 14000KT 15/15 A2981 RMK A01 T01470147  RH  100%=      5-min Rain = 0
KCO1 160831Z 14001KT 15/15 A2981 RMK A01 T01470147  RH  100%=      5-min Rain = 0
KCO1 160832Z 14002KT 15/15 A2981 RMK A01 T01470147  RH  100%=      5-min Rain = 0
KCO1 160833Z 14002KT 15/15 A2981 RMK A01 T01470147  RH  100%=      5-min Rain = 0
KCO1 160834Z 15002KT 15/15 A2981 RMK A01 T01470147  RH  100%=      5-min Rain = 0
KCO1 160835Z 18001KT 15/15 A2981 RMK A01 T01470147  RH  100%=      5-min Rain = 0
KCO1 160836Z 21002KT 15/15 A2982 RMK A01 T01470147  RH  100%=      5-min Rain = 0
KCO1 160837Z 20002KT 15/15 A2982 RMK A01 T01470147  RH  100%=      5-min Rain = 0
KCO1 160838Z 19002KT 15/15 A2982 RMK A01 T01470147  RH  100%=      5-min Rain = 0
KCO1 160839Z 19003KT 15/15 A2982 RMK A01 T01470147  RH  100%=      5-min Rain = 0
KCO1 160840Z 21003KT 15/15 A2982 RMK A01 T01470147  RH  100%=      5-min Rain = 0
KCO1 160841Z 21002KT 15/15 A2982 RMK A01 T01470147  RH  100%=      5-min Rain = 0
KCO1 160842Z 20002KT 15/15 A2981 RMK A01 T01470147  RH  100%=      5-min Rain = 0
KCO1 160843Z 19002KT 15/15 A2981 RMK A01 T01470147  RH  100%=      5-min Rain = 0
KCO1 160844Z 18003KT 15/15 A2981 RMK A01 T01470147  RH  100%=      5-min Rain = 0
KCO1 160845Z 19003KT 15/15 A2981 RMK A01 T01470147  RH  100%=      5-min Rain = 0
KCO1 160846Z 20003KT 15/15 A2981 RMK A01 T01470147  RH  100%=      5-min Rain = 0
KCO1 160847Z 20003KT 15/15 A2981 RMK A01 T01470147  RH  100%=      5-min Rain = 0
KCO1 160848Z 20002KT 15/15 A2981 RMK A01 T01470147  RH  100%=      5-min Rain = 0
KCO1 160849Z 19002KT 15/15 A2981 RMK A01 T01470147  RH  100%=      5-min Rain = 0
KCO1 160850Z 19003KT 15/15 A2981 RMK A01 T01470147  RH  100%=      5-min Rain = 0
KCO1 160851Z 20003KT 15/15 A2981 RMK A01 T01470147  RH  100%=      5-min Rain = 0
KCO1 160852Z 20003KT 15/15 A2981 RMK A01 T01470147  RH  100%=      5-min Rain = 0
KCO1 160853Z 19002KT 15/15 A2981 RMK A01 T01470147  RH  100%=      5-min Rain = 0
KCO1 160854Z 19002KT 15/15 A2981 RMK A01 T01470147  RH  100%=      5-min Rain = 0
KCO1 160855Z 20002KT 15/15 A2981 RMK A01 T01470148  RH  100%=      5-min Rain = 0
KCO1 160856Z 21002KT 15/15 A2981 RMK A01 T01480148  RH  100%=      5-min Rain = 0
KCO1 160857Z 21002KT 15/15 A2981 RMK A01 T01470147  RH  100%=      5-min Rain = 0
KCO1 160858Z 22003KT 15/15 A2981 RMK A01 T01470147  RH  100%=      5-min Rain = 0
KCO1 160859Z 21002KT 15/15 A2981 RMK A01 T01470147  RH  100%=      5-min Rain = 0
KCO1 160900Z 24002KT 15/15 A2981 RMK A01 T01470148  RH  100%=      5-min Rain = 0
KCO1 160901Z 23003KT 15/15 A2981 RMK A01 T01480148  RH  100%=      5-min Rain = 0
KCO1 160902Z 20002KT 15/15 A2981 RMK A01 T01480148  RH  100%=      5-min Rain = 0
KCO1 160903Z 23002KT 15/15 A2981 RMK A01 T01480148  RH  100%=      5-min Rain = 0
KCO1 160904Z 24002KT 15/15 A2981 RMK A01 T01480148  RH  100%=      5-min Rain = 0
KCO1 160905Z 25003KT 15/15 A2981 RMK A01 T01480148  RH  100%=      5-min Rain = 0
KCO1 160906Z 25002KT 15/15 A2981 RMK A01 T01480148  RH  100%=      5-min Rain = 0
KCO1 160907Z 26002KT 15/15 A2981 RMK A01 T01480148  RH  100%=      5-min Rain = 0
KCO1 160908Z 27002KT 15/15 A2981 RMK A01 T01480149  RH  100%=      5-min Rain = 0
KCO1 160909Z 26003KT 15/15 A2981 RMK A01 T01480149  RH  100%=      5-min Rain = 0
KCO1 160910Z 24002KT 15/15 A2981 RMK A01 T01480148  RH  100%=      5-min Rain = 0
KCO1 160911Z 24002KT 15/15 A2981 RMK A01 T01480148  RH  100%=      5-min Rain = 0
KCO1 160912Z 24001KT 15/15 A2981 RMK A01 T01480148  RH  100%=      5-min Rain = 0
KCO1 160913Z 24002KT 15/15 A2981 RMK A01 T01480148  RH  100%=      5-min Rain = 0
KCO1 160914Z 24002KT 15/15 A2981 RMK A01 T01480148  RH  100%=      5-min Rain = 0
KCO1 160915Z 24001KT 15/15 A2981 RMK A01 T01480148  RH  100%=      5-min Rain = 0
KCO1 160916Z 26001KT 15/15 A2981 RMK A01 T01480148  RH  100%=      5-min Rain = 0
KCO1 160917Z 29002KT 15/15 A2981 RMK A01 T01480148  RH  100%=      5-min Rain = 0
KCO1 160918Z 31002KT 15/15 A2981 RMK A01 T01480148  RH  100%=      5-min Rain = 0
KCO1 160919Z 30003KT 15/15 A2981 RMK A01 T01480148  RH  100%=      5-min Rain = 0
KCO1 160920Z 30002KT 15/15 A2981 RMK A01 T01480148  RH  100%=      5-min Rain = 0
KCO1 160921Z 31003KT 15/15 A2981 RMK A01 T01480148  RH  100%=      5-min Rain = 0
KCO1 160922Z 32003KT 15/15 A2981 RMK A01 T01480148  RH  100%=      5-min Rain = 0
KCO1 160923Z 31003KT 15/15 A2981 RMK A01 T01480148  RH  100%=      5-min Rain = 0
KCO1 160924Z 30002KT 15/15 A2981 RMK A01 T01480148  RH  100%=      5-min Rain = 0
KCO1 160925Z 31003KT 15/15 A2981 RMK A01 T01480148  RH  100%=      5-min Rain = 0
KCO1 160926Z 30002KT 15/15 A2981 RMK A01 T01480148  RH  100%=      5-min Rain = 0
KCO1 160927Z 31003KT 15/15 A2981 RMK A01 T01480148  RH  100%=      5-min Rain = 0
KCO1 160928Z 30003KT 15/15 A2981 RMK A01 T01480148  RH  100%=      5-min Rain = 0
KCO1 160929Z 30003KT 15/15 A2981 RMK A01 T01480148  RH  100%=      5-min Rain = 0
KCO1 160930Z 31003KT 15/15 A2982 RMK A01 T01480148  RH  100%=      5-min Rain = 0
KCO1 160931Z 31003KT 15/15 A2982 RMK A01 T01480148  RH  100%=      5-min Rain = 0
KCO1 160932Z 33003KT 15/15 A2981 RMK A01 T01480148  RH  100%=      5-min Rain = 0
KCO1 160933Z 33003KT 15/15 A2981 RMK A01 T01480148  RH  100%=      5-min Rain = 0
KCO1 160934Z 32004KT 15/15 A2982 RMK A01 T01490149  RH  100%=      5-min Rain = 0
KCO1 160935Z 33004KT 15/15 A2982 RMK A01 T01480148  RH  100%=      5-min Rain = 0
KCO1 160936Z 32003KT 15/15 A2981 RMK A01 T01480148  RH  100%=      5-min Rain = 0
KCO1 160937Z 32004KT 15/15 A2981 RMK A01 T01480148  RH  100%=      5-min Rain = 0
KCO1 160938Z 33003KT 15/15 A2981 RMK A01 T01480148  RH  100%=      5-min Rain = 0
KCO1 160939Z 32003KT 15/15 A2981 RMK A01 T01480149  RH  100%=      5-min Rain = 0
KCO1 160940Z 31003KT 15/15 A2981 RMK A01 T01490149  RH  100%=      5-min Rain = 0
KCO1 160941Z 32003KT 15/15 A2981 RMK A01 T01490149  RH  100%=      5-min Rain = 0
KCO1 160942Z 31003KT 15/15 A2982 RMK A01 T01490149  RH  100%=      5-min Rain = 0
KCO1 160943Z 31003KT 15/15 A2982 RMK A01 T01490149  RH  100%=      5-min Rain = 0
KCO1 160944Z 31003KT 15/15 A2982 RMK A01 T01490149  RH  100%=      5-min Rain = 0
KCO1 160945Z 30003KT 15/15 A2982 RMK A01 T01490149  RH  100%=      5-min Rain = 0
KCO1 160946Z 31003KT 15/15 A2982 RMK A01 T01490149  RH  100%=      5-min Rain = 0
KCO1 160947Z 32003KT 15/15 A2982 RMK A01 T01480148  RH  100%=      5-min Rain = 0
KCO1 160948Z 32004KT 15/15 A2982 RMK A01 T01480148  RH  100%=      5-min Rain = 0
KCO1 160949Z 32003KT 15/15 A2982 RMK A01 T01480148  RH  100%=      5-min Rain = 0
KCO1 160950Z 31004KT 15/15 A2982 RMK A01 T01480149  RH  100%=      5-min Rain = 0
KCO1 160951Z 32003KT 15/15 A2982 RMK A01 T01480148  RH  100%=      5-min Rain = 0
KCO1 160952Z 32003KT 15/15 A2982 RMK A01 T01480148  RH  100%=      5-min Rain = 0
KCO1 160953Z 33002KT 15/15 A2981 RMK A01 T01480148  RH  100%=      5-min Rain = 0
KCO1 160954Z 31003KT 15/15 A2982 RMK A01 T01480149  RH  100%=      5-min Rain = 0
KCO1 160955Z 30003KT 15/15 A2982 RMK A01 T01480148  RH  100%=      5-min Rain = 0
KCO1 160956Z 30003KT 15/15 A2981 RMK A01 T01480148  RH  100%=      5-min Rain = 0
KCO1 160957Z 30003KT 15/15 A2981 RMK A01 T01480149  RH  100%=      5-min Rain = 0
KCO1 160958Z 29003KT 15/15 A2981 RMK A01 T01480148  RH  100%=      5-min Rain = 0
KCO1 160959Z 30002KT 15/15 A2981 RMK A01 T01480148  RH  100%=      5-min Rain = 0
KCO1 161000Z 29001KT 15/15 A2981 RMK A01 T01480148  RH  100%=      5-min Rain = 0
KCO1 161001Z 28002KT 15/15 A2981 RMK A01 T01480148  RH  100%=      5-min Rain = 0
KCO1 161002Z 22001KT 15/15 A2981 RMK A01 T01480148  RH  100%=      5-min Rain = 0
KCO1 161003Z 27002KT 15/15 A2981 RMK A01 T01480148  RH  100%=      5-min Rain = 0
KCO1 161004Z 27001KT 15/15 A2981 RMK A01 T01480149  RH  100%=      5-min Rain = 0
KCO1 161005Z 26001KT 15/15 A2981 RMK A01 T01480148  RH  100%=      5-min Rain = 0
KCO1 161006Z 29001KT 15/15 A2981 RMK A01 T01480148  RH  100%=      5-min Rain = 0
KCO1 161007Z 29002KT 15/15 A2981 RMK A01 T01490149  RH  100%=      5-min Rain = 0
KCO1 161008Z 28001KT 15/15 A2981 RMK A01 T01490149  RH  100%=      5-min Rain = 0
KCO1 161009Z 29001KT 15/15 A2981 RMK A01 T01490149  RH  100%=      5-min Rain = 0
KCO1 161010Z 29001KT 15/15 A2981 RMK A01 T01490149  RH  100%=      5-min Rain = 0
KCO1 161011Z 29000KT 15/15 A2981 RMK A01 T01490149  RH  100%=      5-min Rain = 0
KCO1 161012Z 00000KT 15/15 A2981 RMK A01 T01490149  RH  100%=      5-min Rain = 0
KCO1 161013Z 00000KT 15/15 A2981 RMK A01 T01490149  RH  100%=      5-min Rain = 0
KCO1 161014Z 00000KT 15/15 A2981 RMK A01 T01490149  RH  100%=      5-min Rain = 0
KCO1 161015Z 28001KT 15/15 A298 RMK A01 T01490149  RH  100%=      5-min Rain = 0
KCO1 161016Z 29001KT 15/15 A298 RMK A01 T01490149  RH  100%=      5-min Rain = 0
KCO1 161017Z 29001KT 15/15 A298 RMK A01 T01490149  RH  100%=      5-min Rain = 0
KCO1 161018Z 29001KT 15/15 A298 RMK A01 T01490149  RH  100%=      5-min Rain = 0
KCO1 161019Z 26001KT 15/15 A298 RMK A01 T01490149  RH  100%=      5-min Rain = 0
KCO1 161020Z 26001KT 15/15 A298 RMK A01 T01490149  RH  100%=      5-min Rain = 0
KCO1 161021Z 26000KT 15/15 A298 RMK A01 T01490149  RH  100%=      5-min Rain = 0
KCO1 161022Z 26000KT 15/15 A298 RMK A01 T01490149  RH  100%=      5-min Rain = 0
KCO1 161023Z 26000KT 15/15 A298 RMK A01 T01490149  RH  100%=      5-min Rain = 0
KCO1 161024Z 26000KT 15/15 A298 RMK A01 T01490149  RH  100%=      5-min Rain = 0
KCO1 161025Z 26001KT 15/15 A298 RMK A01 T01490149  RH  100%=      5-min Rain = 0
KCO1 161026Z 25002KT 15/15 A298 RMK A01 T01490149  RH  100%=      5-min Rain = 0
KCO1 161027Z 25001KT 15/15 A298 RMK A01 T01490149  RH  100%=      5-min Rain = 0
KCO1 161028Z 25000KT 15/15 A298 RMK A01 T01490149  RH  100%=      5-min Rain = 0
KCO1 161029Z 25000KT 15/15 A2981 RMK A01 T01490149  RH  100%=      5-min Rain = 0
KCO1 161030Z 25001KT 15/15 A2981 RMK A01 T01490149  RH  100%=      5-min Rain = 0
KCO1 161031Z 25001KT 15/15 A2981 RMK A01 T01490149  RH  100%=      5-min Rain = 0
KCO1 161032Z 23002KT 15/15 A2981 RMK A01 T01490149  RH  100%=      5-min Rain = 0
KCO1 161033Z 21002KT 15/15 A2981 RMK A01 T01490149  RH  100%=      5-min Rain = 0
KCO1 161034Z 21002KT 15/15 A2981 RMK A01 T01480149  RH  100%=      5-min Rain = 0
KCO1 161035Z 22002KT 15/15 A2981 RMK A01 T01480148  RH  100%=      5-min Rain = 0
KCO1 161036Z 22001KT 15/15 A2981 RMK A01 T01480149  RH  100%=      5-min Rain = 0
KCO1 161037Z 24002KT 15/15 A2981 RMK A01 T01490149  RH  100%=      5-min Rain = 0
KCO1 161038Z 24002KT 15/15 A2981 RMK A01 T01490149  RH  100%=      5-min Rain = 0
KCO1 161039Z 25002KT 15/15 A2981 RMK A01 T01490149  RH  100%=      5-min Rain = 0
KCO1 161040Z 25001KT 15/15 A2981 RMK A01 T01490149  RH  100%=      5-min Rain = 0
KCO1 161041Z 27001KT 15/15 A2981 RMK A01 T01480148  RH  100%=      5-min Rain = 0
KCO1 161042Z 27001KT 15/15 A2981 RMK A01 T01480148  RH  100%=      5-min Rain = 0
KCO1 161043Z 27002KT 15/15 A2981 RMK A01 T01480149  RH  100%=      5-min Rain = 0
KCO1 161044Z 28002KT 15/15 A2981 RMK A01 T01480148  RH  100%=      5-min Rain = 0
KCO1 161045Z 28001KT 15/15 A2981 RMK A01 T01480148  RH  100%=      5-min Rain = 0
KCO1 161046Z 28001KT 15/15 A2981 RMK A01 T01480148  RH  100%=      5-min Rain = 0
KCO1 161047Z 29001KT 15/15 A2981 RMK A01 T01480148  RH  100%=      5-min Rain = 0
KCO1 161048Z 27002KT 15/15 A2981 RMK A01 T01480149  RH  100%=      5-min Rain = 0
KCO1 161049Z 25002KT 15/15 A2981 RMK A01 T01480148  RH  100%=      5-min Rain = 0
KCO1 161050Z 26002KT 15/15 A2981 RMK A01 T01480149  RH  100%=      5-min Rain = 0
KCO1 161051Z 26002KT 15/15 A2981 RMK A01 T01480149  RH  100%=      5-min Rain = 0
KCO1 161052Z 24001KT 15/15 A2981 RMK A01 T01480148  RH  100%=      5-min Rain = 0
KCO1 161053Z 22001KT 15/15 A2981 RMK A01 T01480148  RH  100%=      5-min Rain = 0
KCO1 161054Z 24001KT 15/15 A2981 RMK A01 T01480149  RH  100%=      5-min Rain = 0
KCO1 161055Z 26002KT 15/15 A2981 RMK A01 T01480148  RH  100%=      5-min Rain = 0
KCO1 161056Z 28001KT 15/15 A2981 RMK A01 T01490149  RH  100%=      5-min Rain = 0
KCO1 161057Z 28002KT 15/15 A2981 RMK A01 T01490149  RH  100%=      5-min Rain = 0
KCO1 161058Z 29003KT 15/15 A2981 RMK A01 T01490149  RH  100%=      5-min Rain = 0
KCO1 161059Z 29004KT 15/15 A2981 RMK A01 T01490149  RH  100%=      5-min Rain = 0
KCO1 161100Z 29004KT 15/15 A2981 RMK A01 T01490149  RH  100%=      5-min Rain = 0
KCO1 161101Z 28004KT 15/15 A2981 RMK A01 T01480149  RH  100%=      5-min Rain = 0
KCO1 161102Z 28004KT 15/15 A2981 RMK A01 T01480148  RH  100%=      5-min Rain = 0
KCO1 161103Z 28004KT 15/15 A2981 RMK A01 T01480148  RH  100%=      5-min Rain = 0
KCO1 161104Z 28004KT 15/15 A2981 RMK A01 T01480148  RH  100%=      5-min Rain = 0
KCO1 161105Z 28004KT 15/15 A2982 RMK A01 T01480148  RH  100%=      5-min Rain = 0
KCO1 161106Z 28004KT 15/15 A2981 RMK A01 T01480149  RH  100%=      5-min Rain = 0
KCO1 161107Z 28005KT 15/15 A2981 RMK A01 T01480148  RH  100%=      5-min Rain = 0
KCO1 161108Z 28004KT 15/15 A2981 RMK A01 T01480148  RH  100%=      5-min Rain = 0
KCO1 161109Z 27004KT 15/15 A2982 RMK A01 T01480148  RH  100%=      5-min Rain = 0
KCO1 161110Z 28004KT 15/15 A2982 RMK A01 T01490149  RH  100%=      5-min Rain = 0
KCO1 161111Z 29004KT 15/15 A2981 RMK A01 T01480148  RH  100%=      5-min Rain = 0
KCO1 161112Z 29004KT 15/15 A2981 RMK A01 T01480148  RH  100%=      5-min Rain = 0
KCO1 161113Z 29004KT 15/15 A2981 RMK A01 T01480148  RH  100%=      5-min Rain = 0
KCO1 161114Z 29004KT 15/15 A2981 RMK A01 T01480149  RH  100%=      5-min Rain = 0
KCO1 161115Z 27004KT 15/15 A2981 RMK A01 T01480148  RH  100%=      5-min Rain = 0
KCO1 161116Z 28003KT 15/15 A2981 RMK A01 T01480148  RH  100%=      5-min Rain = 0
KCO1 161117Z 29004KT 15/15 A2981 RMK A01 T01480148  RH  100%=      5-min Rain = 0
KCO1 161118Z 28003KT 15/15 A2981 RMK A01 T01480148  RH  100%=      5-min Rain = 0
KCO1 161119Z 28003KT 15/15 A2981 RMK A01 T01480148  RH  100%=      5-min Rain = 0
KCO1 161120Z 29003KT 15/15 A2981 RMK A01 T01480148  RH  100%=      5-min Rain = 0
KCO1 161121Z 29003KT 15/15 A2981 RMK A01 T01490149  RH  100%=      5-min Rain = 0
KCO1 161122Z 28004KT 15/15 A2981 RMK A01 T01480148  RH  100%=      5-min Rain = 0
KCO1 161123Z 28005KT 15/15 A2982 RMK A01 T01480149  RH  100%=      5-min Rain = 0
KCO1 161124Z 28005KT 15/15 A2982 RMK A01 T01480148  RH  100%=      5-min Rain = 0
KCO1 161125Z 28005KT 15/15 A2982 RMK A01 T01480148  RH  100%=      5-min Rain = 0
KCO1 161126Z 27005KT 15/15 A2982 RMK A01 T01480148  RH  100%=      5-min Rain = 0
KCO1 161127Z 28005KT 15/15 A2982 RMK A01 T01480148  RH  100%=      5-min Rain = 0
KCO1 161128Z 27005KT 15/15 A2982 RMK A01 T01480148  RH  100%=      5-min Rain = 0
KCO1 161129Z 28003KT 15/15 A2982 RMK A01 T01480148  RH  100%=      5-min Rain = 0
KCO1 161130Z 28003KT 15/15 A2981 RMK A01 T01480149  RH  100%=      5-min Rain = 0
KCO1 161131Z 28003KT 15/15 A2981 RMK A01 T01480148  RH  100%=      5-min Rain = 0
KCO1 161132Z 28004KT 15/15 A2982 RMK A01 T01480149  RH  100%=      5-min Rain = 0
KCO1 161133Z 28004KT 15/15 A2982 RMK A01 T01480148  RH  100%=      5-min Rain = 0
KCO1 161134Z 27004KT 15/15 A2982 RMK A01 T01480148  RH  100%=      5-min Rain = 0
KCO1 161135Z 27005KT 15/15 A2982 RMK A01 T01480148  RH  100%=      5-min Rain = 0
KCO1 161136Z 27004KT 15/15 A2982 RMK A01 T01490149  RH  100%=      5-min Rain = 0
KCO1 161137Z 28004KT 15/15 A2982 RMK A01 T01490149  RH  100%=      5-min Rain = 0
KCO1 161138Z 27004KT 15/15 A2982 RMK A01 T01490149  RH  100%=      5-min Rain = 0
KCO1 161139Z 27003KT 15/15 A2982 RMK A01 T01490149  RH  100%=      5-min Rain = 0
KCO1 161140Z 27004KT 15/15 A2982 RMK A01 T01490149  RH  100%=      5-min Rain = 0
KCO1 161141Z 28003KT 15/15 A2982 RMK A01 T01490149  RH  100%=      5-min Rain = 0
KCO1 161142Z 29003KT 15/15 A2982 RMK A01 T01490149  RH  100%=      5-min Rain = 0
KCO1 161143Z 28003KT 15/15 A2982 RMK A01 T01490149  RH  100%=      5-min Rain = 0
KCO1 161144Z 27003KT 15/15 A2982 RMK A01 T01490149  RH  100%=      5-min Rain = 0
KCO1 161145Z 26004KT 15/15 A2982 RMK A01 T01490149  RH  100%=      5-min Rain = 0
KCO1 161146Z 28004KT 15/15 A2982 RMK A01 T01490149  RH  100%=      5-min Rain = 0
KCO1 161147Z 28005KT 15/15 A2982 RMK A01 T01490149  RH  100%=      5-min Rain = 0
KCO1 161148Z 27004KT 15/15 A2982 RMK A01 T01490149  RH  100%=      5-min Rain = 0
KCO1 161149Z 24004KT 15/15 A2982 RMK A01 T01490149  RH  100%=      5-min Rain = 0
KCO1 161150Z 24004KT 15/15 A2982 RMK A01 T01490149  RH  100%=      5-min Rain = 0
KCO1 161151Z 25003KT 15/15 A2982 RMK A01 T01490149  RH  100%=      5-min Rain = 0
KCO1 161152Z 28003KT 15/15 A2982 RMK A01 T01490149  RH  100%=      5-min Rain = 0
KCO1 161153Z 27004KT 15/15 A2982 RMK A01 T01490149  RH  100%=      5-min Rain = 0
KCO1 161154Z 27003KT 15/15 A2982 RMK A01 T01490150  RH  100%=      5-min Rain = 0
KCO1 161155Z 28005KT 15/15 A2982 RMK A01 T01490149  RH  100%=      5-min Rain = 0
KCO1 161156Z 27006KT 15/15 A2982 RMK A01 T01490150  RH  100%=      5-min Rain = 0
KCO1 161157Z 28005KT 15/15 A2982 RMK A01 T01490149  RH  100%=      5-min Rain = 0
KCO1 161158Z 27005KT 15/15 A2982 RMK A01 T01490149  RH  100%=      5-min Rain = 0
KCO1 161159Z 26004KT 15/15 A2982 RMK A01 T01490149  RH  100%=      5-min Rain = 0
KCO1 161200Z 27004KT 15/15 A2982 RMK A01 T01490150  RH  100%=      5-min Rain = 0
KCO1 161201Z 28004KT 15/15 A2983 RMK A01 T01490150  RH  100%=      5-min Rain = 0
KCO1 161202Z 28005KT 15/15 A2983 RMK A01 T01490149  RH  100%=      5-min Rain = 0
KCO1 161203Z 29004KT 15/15 A2983 RMK A01 T01490149  RH  100%=      5-min Rain = 0
KCO1 161204Z 29004KT 15/15 A2983 RMK A01 T01500150  RH  100%=      5-min Rain = 0
KCO1 161205Z 28004KT 15/15 A2983 RMK A01 T01500150  RH  100%=      5-min Rain = 0
KCO1 161206Z 28005KT 15/15 A2983 RMK A01 T01500149  RH  099%=      5-min Rain = 0
KCO1 161207Z 28005KT 15/15 A2983 RMK A01 T01500149  RH  099%=      5-min Rain = 0
KCO1 161208Z 28005KT 15/15 A2983 RMK A01 T01500149  RH  099%=      5-min Rain = 0
KCO1 161209Z 27005KT 15/15 A2983 RMK A01 T01500149  RH  099%=      5-min Rain = 0
KCO1 161210Z 27005KT 15/15 A2983 RMK A01 T01500148  RH  099%=      5-min Rain = 0
KCO1 161211Z 27004KT 15/15 A2983 RMK A01 T01500148  RH  099%=      5-min Rain = 0
KCO1 161212Z 28004KT 15/15 A2983 RMK A01 T01500148  RH  098%=      5-min Rain = 0
KCO1 161213Z 28003KT 15/15 A2983 RMK A01 T01500147  RH  098%=      5-min Rain = 0
KCO1 161214Z 27004KT 15/15 A2983 RMK A01 T01500147  RH  098%=      5-min Rain = 0
KCO1 161215Z 27004KT 15/15 A2983 RMK A01 T01510147  RH  098%=      5-min Rain = 0
KCO1 161216Z 28004KT 15/15 A2983 RMK A01 T01510147  RH  098%=      5-min Rain = 0
KCO1 161217Z 28005KT 15/15 A2983 RMK A01 T01510147  RH  098%=      5-min Rain = 0
KCO1 161218Z 27004KT 15/15 A2983 RMK A01 T01510147  RH  098%=      5-min Rain = 0
KCO1 161219Z 27004KT 15/15 A2983 RMK A01 T01510147  RH  097%=      5-min Rain = 0
KCO1 161220Z 27003KT 15/15 A2983 RMK A01 T01510147  RH  097%=      5-min Rain = 0
KCO1 161221Z 27003KT 15/15 A2983 RMK A01 T01510147  RH  097%=      5-min Rain = 0
KCO1 161222Z 27004KT 15/15 A2983 RMK A01 T01510146  RH  097%=      5-min Rain = 0
KCO1 161223Z 27005KT 15/15 A2983 RMK A01 T01510145  RH  097%=      5-min Rain = 0
KCO1 161224Z 28005KT 15/15 A2983 RMK A01 T01510145  RH  096%=      5-min Rain = 0
KCO1 161225Z 28003KT 15/15 A2983 RMK A01 T01510145  RH  096%=      5-min Rain = 0
KCO1 161226Z 28003KT 15/14 A2983 RMK A01 T01510144  RH  096%=      5-min Rain = 0
KCO1 161227Z 27004KT 15/14 A2983 RMK A01 T01510144  RH  096%=      5-min Rain = 0
KCO1 161228Z 28004KT 15/14 A2983 RMK A01 T01510144  RH  096%=      5-min Rain = 0
KCO1 161229Z 28004KT 15/14 A2983 RMK A01 T01510144  RH  095%=      5-min Rain = 0
KCO1 161230Z 28004KT 15/14 A2983 RMK A01 T01510144  RH  095%=      5-min Rain = 0
KCO1 161231Z 28004KT 15/14 A2983 RMK A01 T01520144  RH  095%=      5-min Rain = 0
KCO1 161232Z 28005KT 15/14 A2983 RMK A01 T01520144  RH  095%=      5-min Rain = 0
KCO1 161233Z 28005KT 15/14 A2983 RMK A01 T01520144  RH  095%=      5-min Rain = 0
KCO1 161234Z 27004KT 15/14 A2983 RMK A01 T01510144  RH  095%=      5-min Rain = 0
KCO1 161235Z 27004KT 15/14 A2983 RMK A01 T01520144  RH  095%=      5-min Rain = 0
KCO1 161236Z 28005KT 15/14 A2983 RMK A01 T01510143  RH  095%=      5-min Rain = 0
KCO1 161237Z 28004KT 15/14 A2983 RMK A01 T01520143  RH  094%=      5-min Rain = 0
KCO1 161238Z 27004KT 15/14 A2983 RMK A01 T01520143  RH  094%=      5-min Rain = 0
KCO1 161239Z 27003KT 15/14 A2983 RMK A01 T01520142  RH  094%=      5-min Rain = 0
KCO1 161240Z 27003KT 15/14 A2983 RMK A01 T01510142  RH  094%=      5-min Rain = 0
KCO1 161241Z 27003KT 15/14 A2983 RMK A01 T01520142  RH  094%=      5-min Rain = 0
KCO1 161242Z 27003KT 15/14 A2983 RMK A01 T01520142  RH  094%=      5-min Rain = 0
KCO1 161243Z 28004KT 15/14 A2983 RMK A01 T01520142  RH  094%=      5-min Rain = 0
KCO1 161244Z 28003KT 15/14 A2983 RMK A01 T01510142  RH  094%=      5-min Rain = 0
KCO1 161245Z 27003KT 15/14 A2983 RMK A01 T01520142  RH  094%=      5-min Rain = 0
KCO1 161246Z 27003KT 15/14 A2983 RMK A01 T01510142  RH  094%=      5-min Rain = 0
KCO1 161247Z 27004KT 15/14 A2983 RMK A01 T01510141  RH  094%=      5-min Rain = 0
KCO1 161248Z 28004KT 15/14 A2984 RMK A01 T01520142  RH  094%=      5-min Rain = 0
KCO1 161249Z 28005KT 15/14 A2984 RMK A01 T01520141  RH  094%=      5-min Rain = 0
KCO1 161250Z 28005KT 15/14 A2984 RMK A01 T01510141  RH  093%=      5-min Rain = 0
KCO1 161251Z 27005KT 15/14 A2984 RMK A01 T01510141  RH  093%=      5-min Rain = 0
KCO1 161252Z 27005KT 15/14 A2984 RMK A01 T01510141  RH  093%=      5-min Rain = 0
KCO1 161253Z 26004KT 15/14 A2984 RMK A01 T01520141  RH  093%=      5-min Rain = 0
KCO1 161254Z 27004KT 15/14 A2984 RMK A01 T01520141  RH  093%=      5-min Rain = 0
KCO1 161255Z 27005KT 15/14 A2984 RMK A01 T01520140  RH  093%=      5-min Rain = 0
KCO1 161256Z 28005KT 15/14 A2984 RMK A01 T01520140  RH  093%=      5-min Rain = 0
KCO1 161257Z 27004KT 15/14 A2984 RMK A01 T01520141  RH  093%=      5-min Rain = 0
KCO1 161258Z 27004KT 15/14 A2984 RMK A01 T01520141  RH  093%=      5-min Rain = 0
KCO1 161259Z 28004KT 15/14 A2984 RMK A01 T01520141  RH  093%=      5-min Rain = 0
KCO1 161300Z 29003KT 15/14 A2984 RMK A01 T01520141  RH  093%=      5-min Rain = 0
KCO1 161301Z 29004KT 15/14 A2984 RMK A01 T01520141  RH  093%=      5-min Rain = 0
KCO1 161302Z 30004KT 15/14 A2984 RMK A01 T01520141  RH  093%=      5-min Rain = 0
KCO1 161303Z 30004KT 15/14 A2984 RMK A01 T01520141  RH  093%=      5-min Rain = 0
KCO1 161304Z 30004KT 15/14 A2984 RMK A01 T01520142  RH  094%=      5-min Rain = 0
KCO1 161305Z 30005KT 15/14 A2984 RMK A01 T01520142  RH  094%=      5-min Rain = 0
KCO1 161306Z 30004KT 15/14 A2984 RMK A01 T01520142  RH  094%=      5-min Rain = 0
KCO1 161307Z 31005KT 15/14 A2984 RMK A01 T01520142  RH  094%=      5-min Rain = 0
KCO1 161308Z 31005KT 15/14 A2984 RMK A01 T01520142  RH  094%=      5-min Rain = 0
KCO1 161309Z 32006KT 15/14 A2985 RMK A01 T01520142  RH  094%=      5-min Rain = 0
KCO1 161310Z 33007KT 15/14 A2985 RMK A01 T01520142  RH  094%=      5-min Rain = 0
KCO1 161311Z 34010KT 15/14 A2986 RMK A01 T01520142  RH  094%=      5-min Rain = 0
KCO1 161312Z 34011KT 15/14 A2986 RMK A01 T01520142  RH  094%=      5-min Rain = 0
KCO1 161313Z 34012KT 15/14 A2987 RMK A01 T01520141  RH  093%=      5-min Rain = 0
KCO1 161314Z 34010KT 15/14 A2986 RMK A01 T01520140  RH  093%=      5-min Rain = 0
KCO1 161315Z 34009KT 15/14 A2986 RMK A01 T01520141  RH  093%=      5-min Rain = 0
KCO1 161316Z 34008KT 15/14 A2986 RMK A01 T01520140  RH  093%=      5-min Rain = 0
KCO1 161317Z 34009KT 15/14 A2986 RMK A01 T01520140  RH  093%=      5-min Rain = 0
KCO1 161318Z 34011KT 15/14 A2986 RMK A01 T01510140  RH  093%=      5-min Rain = 0
KCO1 161319Z 34012KT 15/14 A2987 RMK A01 T01510140  RH  093%=      5-min Rain = 0
KCO1 161320Z 34011KT 15/14 A2987 RMK A01 T01510138  RH  092%=      5-min Rain = 0
KCO1 161321Z 34009KT 15/14 A2987 RMK A01 T01500138  RH  092%=      5-min Rain = 0
KCO1 161322Z 34008KT 15/14 A2986 RMK A01 T01500137  RH  092%=      5-min Rain = 0
KCO1 161323Z 34008KT 15/14 A2987 RMK A01 T01500136  RH  092%=      5-min Rain = 0
KCO1 161324Z 34012KT 15/14 A2987 RMK A01 T01500136  RH  092%=      5-min Rain = 0
KCO1 161325Z 34011KT 15/14 A2987 RMK A01 T01500136  RH  091%=      5-min Rain = 0
KCO1 161326Z 34011KT 15/14 A2987 RMK A01 T01500135  RH  091%=      5-min Rain = 0
KCO1 161327Z 33006KT 15/14 A2987 RMK A01 T01500135  RH  091%=      5-min Rain = 0
KCO1 161328Z 31005KT 15/14 A2986 RMK A01 T01500135  RH  091%=      5-min Rain = 0
KCO1 161329Z 32006KT 15/13 A2986 RMK A01 T01500134  RH  090%=      5-min Rain = 0
KCO1 161330Z 33008KT 15/13 A2987 RMK A01 T01500134  RH  090%=      5-min Rain = 0
KCO1 161331Z 34010KT 15/13 A2987 RMK A01 T01500133  RH  090%=      5-min Rain = 0
KCO1 161332Z 34012KT 15/13 A2987 RMK A01 T01500133  RH  090%=      5-min Rain = 0
KCO1 161333Z 34009KT 15/13 A2987 RMK A01 T01500133  RH  089%=      5-min Rain = 0
KCO1 161334Z 32006KT 15/13 A2987 RMK A01 T01500133  RH  089%=      5-min Rain = 0
KCO1 161335Z 30005KT 15/13 A2986 RMK A01 T01500132  RH  089%=      5-min Rain = 0
KCO1 161336Z 32007KT 15/13 A2987 RMK A01 T01500132  RH  089%=      5-min Rain = 0
KCO1 161337Z 33009KT 15/13 A2987 RMK A01 T01500133  RH  089%=      5-min Rain = 0
KCO1 161338Z 34011KT 15/13 A2988 RMK A01 T01500133  RH  089%=      5-min Rain = 0
KCO1 161339Z 34012KT 15/13 A2988 RMK A01 T01510133  RH  089%=      5-min Rain = 0
KCO1 161340Z 34011KT 15/13 A2988 RMK A01 T01500133  RH  089%=      5-min Rain = 0
KCO1 161341Z 34010KT 15/13 A2988 RMK A01 T01500133  RH  089%=      5-min Rain = 0
KCO1 161342Z 33009KT 15/13 A2988 RMK A01 T01510133  RH  089%=      5-min Rain = 0
KCO1 161343Z 34013KT 15/13 A2988 RMK A01 T01500131  RH  089%=      5-min Rain = 0
KCO1 161344Z 34013KT 15/13 A2988 RMK A01 T01500131  RH  088%=      5-min Rain = 0
KCO1 161345Z 34014KT 15/13 A2988 RMK A01 T01490130  RH  088%=      5-min Rain = 0
KCO1 161346Z 34011KT 15/13 A2988 RMK A01 T01490130  RH  088%=      5-min Rain = 0
KCO1 161347Z 33010KT 15/13 A2988 RMK A01 T01490130  RH  088%=      5-min Rain = 0
KCO1 161348Z 34010KT 15/13 A2988 RMK A01 T01490129  RH  088%=      5-min Rain = 0
KCO1 161349Z 34013KT 15/13 A2988 RMK A01 T01490129  RH  088%=      5-min Rain = 0
KCO1 161350Z 34012KT 15/13 A2988 RMK A01 T01490128  RH  087%=      5-min Rain = 0
KCO1 161351Z 33010KT 15/13 A2988 RMK A01 T01490128  RH  087%=      5-min Rain = 0
KCO1 161352Z 31006KT 15/13 A2987 RMK A01 T01490127  RH  087%=      5-min Rain = 0
KCO1 161353Z 32008KT 15/13 A2987 RMK A01 T01490127  RH  087%=      5-min Rain = 0
KCO1 161354Z 34011KT 15/13 A2987 RMK A01 T01490127  RH  087%=      5-min Rain = 0
KCO1 161355Z 34013KT 15/13 A2988 RMK A01 T01490126  RH  087%=      5-min Rain = 0
KCO1 161356Z 34011KT 15/13 A2988 RMK A01 T01490127  RH  086%=      5-min Rain = 0
KCO1 161357Z 34011KT 15/13 A2988 RMK A01 T01500127  RH  086%=      5-min Rain = 0
KCO1 161358Z 34009KT 15/13 A2988 RMK A01 T01500126  RH  086%=      5-min Rain = 0
KCO1 161359Z 33011KT 15/13 A2988 RMK A01 T01500127  RH  086%=      5-min Rain = 0
KCO1 161400Z 34013KT 15/13 A2988 RMK A01 T01510126  RH  085%=      5-min Rain = 0
KCO1 161401Z 33012KT 15/13 A2988 RMK A01 T01510126  RH  085%=      5-min Rain = 0
KCO1 161402Z 33010KT 15/13 A2988 RMK A01 T01500126  RH  085%=      5-min Rain = 0
KCO1 161403Z 33011KT 15/13 A2988 RMK A01 T01500126  RH  085%=      5-min Rain = 0
KCO1 161404Z 34013KT 15/13 A2988 RMK A01 T01500126  RH  085%=      5-min Rain = 0
KCO1 161405Z 34014KT 15/13 A2988 RMK A01 T01500126  RH  085%=      5-min Rain = 0
KCO1 161406Z 34012KT 15/13 A2988 RMK A01 T01500125  RH  085%=      5-min Rain = 0
KCO1 161407Z 33010KT 15/13 A2988 RMK A01 T01500125  RH  085%=      5-min Rain = 0
KCO1 161408Z 32009KT 15/13 A2988 RMK A01 T01500126  RH  085%=      5-min Rain = 0
KCO1 161409Z 32010KT 15/13 A2988 RMK A01 T01500126  RH  085%=      5-min Rain = 0
KCO1 161410Z 33009KT 15/13 A2988 RMK A01 T01510126  RH  085%=      5-min Rain = 0
KCO1 161411Z 33009KT 15/13 A2988 RMK A01 T01510126  RH  085%=      5-min Rain = 0
KCO1 161412Z 33010KT 15/13 A2988 RMK A01 T01510126  RH  085%=      5-min Rain = 0
KCO1 161413Z 33011KT 15/13 A2989 RMK A01 T01510126  RH  085%=      5-min Rain = 0
KCO1 161414Z 33010KT 15/13 A2989 RMK A01 T01520126  RH  085%=      5-min Rain = 0
KCO1 161415Z 33010KT 15/13 A2989 RMK A01 T01520126  RH  085%=      5-min Rain = 0
KCO1 161416Z 33009KT 15/13 A2989 RMK A01 T01520126  RH  085%=      5-min Rain = 0
KCO1 161417Z 33009KT 15/13 A2989 RMK A01 T01520126  RH  085%=      5-min Rain = 0
KCO1 161418Z 34009KT 15/13 A2988 RMK A01 T01520126  RH  084%=      5-min Rain = 0
KCO1 161419Z 33008KT 15/13 A2988 RMK A01 T01520126  RH  084%=      5-min Rain = 0
KCO1 161420Z 34009KT 15/13 A2988 RMK A01 T01530126  RH  084%=      5-min Rain = 0
KCO1 161421Z 34009KT 15/13 A2988 RMK A01 T01530126  RH  084%=      5-min Rain = 0
KCO1 161422Z 34009KT 15/13 A2989 RMK A01 T01530126  RH  084%=      5-min Rain = 0
KCO1 161423Z 34010KT 15/13 A2989 RMK A01 T01530126  RH  084%=      5-min Rain = 0
KCO1 161424Z 34010KT 15/13 A2989 RMK A01 T01530125  RH  083%=      5-min Rain = 0
KCO1 161425Z 35009KT 15/13 A2988 RMK A01 T01530125  RH  083%=      5-min Rain = 0
KCO1 161426Z 35009KT 15/13 A2989 RMK A01 T01530126  RH  083%=      5-min Rain = 0
KCO1 161427Z 35012KT 15/13 A2989 RMK A01 T01540125  RH  083%=      5-min Rain = 0
KCO1 161428Z 33010KT 15/13 A2988 RMK A01 T01540125  RH  083%=      5-min Rain = 0
KCO1 161429Z 34009KT 15/13 A2988 RMK A01 T01540126  RH  083%=      5-min Rain = 0
KCO1 161430Z 34010KT 15/13 A2989 RMK A01 T01540125  RH  083%=      5-min Rain = 0
KCO1 161431Z 34010KT 15/13 A2989 RMK A01 T01540125  RH  083%=      5-min Rain = 0
KCO1 161432Z 33010KT 16/13 A2989 RMK A01 T01550126  RH  083%=      5-min Rain = 0
KCO1 161433Z 34009KT 16/13 A2989 RMK A01 T01560125  RH  082%=      5-min Rain = 0
KCO1 161434Z 35010KT 16/13 A2989 RMK A01 T01560125  RH  082%=      5-min Rain = 0
KCO1 161435Z 34011KT 16/13 A2989 RMK A01 T01560125  RH  082%=      5-min Rain = 0
KCO1 161436Z 33011KT 16/13 A2989 RMK A01 T01560125  RH  082%=      5-min Rain = 0
KCO1 161437Z 34010KT 16/13 A2989 RMK A01 T01570125  RH  081%=      5-min Rain = 0
KCO1 161438Z 35010KT 16/13 A2989 RMK A01 T01580125  RH  081%=      5-min Rain = 0
KCO1 161439Z 35010KT 16/13 A2989 RMK A01 T01590126  RH  081%=      5-min Rain = 0
KCO1 161440Z 34008KT 16/13 A2989 RMK A01 T01600125  RH  080%=      5-min Rain = 0
KCO1 161441Z 34008KT 16/12 A2989 RMK A01 T01600124  RH  079%=      5-min Rain = 0
KCO1 161442Z 36009KT 16/13 A2989 RMK A01 T01610125  RH  079%=      5-min Rain = 0
KCO1 161443Z 00010KT 16/13 A2989 RMK A01 T01620126  RH  079%=      5-min Rain = 0
KCO1 161444Z 34007KT 16/12 A2989 RMK A01 T01640124  RH  078%=      5-min Rain = 0
KCO1 161445Z 34009KT 17/12 A2989 RMK A01 T01650124  RH  077%=      5-min Rain = 0
KCO1 161446Z 34008KT 17/12 A2989 RMK A01 T01650123  RH  076%=      5-min Rain = 0
KCO1 161447Z 32005KT 16/12 A2989 RMK A01 T01640122  RH  076%=      5-min Rain = 0
KCO1 161448Z 34004KT 16/12 A2989 RMK A01 T01640122  RH  077%=      5-min Rain = 0
KCO1 161449Z 34004KT 16/12 A2989 RMK A01 T01640122  RH  077%=      5-min Rain = 0
KCO1 161450Z 35002KT 16/12 A2989 RMK A01 T01630122  RH  076%=      5-min Rain = 0
KCO1 161451Z 01002KT 16/12 A2989 RMK A01 T01630123  RH  077%=      5-min Rain = 0
KCO1 161452Z 32003KT 16/12 A2989 RMK A01 T01640124  RH  077%=      5-min Rain = 0
KCO1 161453Z 30004KT 17/12 A2989 RMK A01 T01660124  RH  077%=      5-min Rain = 0
KCO1 161454Z 31004KT 17/12 A2989 RMK A01 T01660124  RH  076%=      5-min Rain = 0
KCO1 161455Z 31004KT 17/12 A2989 RMK A01 T01650124  RH  076%=      5-min Rain = 0
KCO1 161456Z 33005KT 17/12 A2989 RMK A01 T01660122  RH  075%=      5-min Rain = 0
KCO1 161457Z 34006KT 17/12 A2989 RMK A01 T01670122  RH  075%=      5-min Rain = 0
KCO1 161458Z 33007KT 17/12 A2989 RMK A01 T01680122  RH  074%=      5-min Rain = 0
KCO1 161459Z 33006KT 17/12 A2989 RMK A01 T01680118  RH  072%=      5-min Rain = 0
KCO1 161500Z 36004KT 17/12 A2988 RMK A01 T01680117  RH  072%=      5-min Rain = 0
KCO1 161501Z 35005KT 17/12 A2989 RMK A01 T01670118  RH  072%=      5-min Rain = 0
KCO1 161502Z 35008KT 17/12 A2989 RMK A01 T01680118  RH  072%=      5-min Rain = 0
KCO1 161503Z 34007KT 17/12 A2989 RMK A01 T01690119  RH  072%=      5-min Rain = 0
KCO1 161504Z 33006KT 17/12 A2988 RMK A01 T01700116  RH  071%=      5-min Rain = 0
KCO1 161505Z 32006KT 17/12 A2988 RMK A01 T01700117  RH  071%=      5-min Rain = 0
KCO1 161506Z 35007KT 17/12 A2989 RMK A01 T01700118  RH  071%=      5-min Rain = 0
KCO1 161507Z 36009KT 17/12 A2989 RMK A01 T01720120  RH  071%=      5-min Rain = 0
KCO1 161508Z 36008KT 17/12 A2989 RMK A01 T01740119  RH  070%=      5-min Rain = 0
KCO1 161509Z 33007KT 17/12 A2989 RMK A01 T01730117  RH  070%=      5-min Rain = 0
KCO1 161510Z 36007KT 17/12 A2989 RMK A01 T01740118  RH  070%=      5-min Rain = 0
KCO1 161511Z 35006KT 18/12 A2989 RMK A01 T01750120  RH  070%=      5-min Rain = 0
KCO1 161512Z 36008KT 18/12 A2989 RMK A01 T01770119  RH  069%=      5-min Rain = 0
KCO1 161513Z 35008KT 18/12 A2989 RMK A01 T01780117  RH  067%=      5-min Rain = 0
KCO1 161514Z 35008KT 18/12 A2989 RMK A01 T01780117  RH  068%=      5-min Rain = 0
KCO1 161515Z 35008KT 18/12 A2989 RMK A01 T01770117  RH  068%=      5-min Rain = 0
KCO1 161516Z 34009KT 18/12 A2989 RMK A01 T01770116  RH  067%=      5-min Rain = 0
KCO1 161517Z 34010KT 18/12 A2989 RMK A01 T01760116  RH  068%=      5-min Rain = 0
KCO1 161518Z 36010KT 18/12 A2989 RMK A01 T01750116  RH  068%=      5-min Rain = 0
KCO1 161519Z 35007KT 18/12 A2989 RMK A01 T01760116  RH  068%=      5-min Rain = 0
KCO1 161520Z 34010KT 18/12 A2989 RMK A01 T01770117  RH  068%=      5-min Rain = 0
KCO1 161521Z 35008KT 18/12 A2989 RMK A01 T01780116  RH  067%=      5-min Rain = 0
KCO1 161522Z 34010KT 18/12 A2989 RMK A01 T01780116  RH  067%=      5-min Rain = 0
KCO1 161523Z 33010KT 18/12 A2989 RMK A01 T01780115  RH  066%=      5-min Rain = 0
KCO1 161524Z 35011KT 18/11 A2989 RMK A01 T01770113  RH  066%=      5-min Rain = 0
KCO1 161525Z 35010KT 18/11 A299 RMK A01 T01760113  RH  067%=      5-min Rain = 0
KCO1 161526Z 35009KT 18/11 A299 RMK A01 T01770114  RH  066%=      5-min Rain = 0
KCO1 161527Z 35012KT 18/11 A2989 RMK A01 T01770113  RH  066%=      5-min Rain = 0
KCO1 161528Z 35010KT 18/12 A299 RMK A01 T01780115  RH  067%=      5-min Rain = 0
KCO1 161529Z 35010KT 18/11 A299 RMK A01 T01780114  RH  066%=      5-min Rain = 0
KCO1 161530Z 35010KT 18/11 A299 RMK A01 T01780114  RH  066%=      5-min Rain = 0
KCO1 161531Z 34011KT 18/12 A299 RMK A01 T01800116  RH  066%=      5-min Rain = 0
KCO1 161532Z 35013KT 18/12 A299 RMK A01 T01800116  RH  066%=      5-min Rain = 0
KCO1 161533Z 35010KT 18/12 A299 RMK A01 T01800116  RH  066%=      5-min Rain = 0
KCO1 161534Z 34010KT 18/12 A299 RMK A01 T01790115  RH  066%=      5-min Rain = 0
KCO1 161535Z 34009KT 18/12 A299 RMK A01 T01790117  RH  067%=      5-min Rain = 0
KCO1 161536Z 35009KT 18/12 A299 RMK A01 T01800118  RH  067%=      5-min Rain = 0
KCO1 161537Z 01010KT 18/12 A299 RMK A01 T01810118  RH  067%=      5-min Rain = 0
KCO1 161538Z 36011KT 18/12 A299 RMK A01 T01820118  RH  066%=      5-min Rain = 0
KCO1 161539Z 35011KT 18/12 A299 RMK A01 T01840117  RH  065%=      5-min Rain = 0
KCO1 161540Z 34009KT 18/12 A299 RMK A01 T01810115  RH  065%=      5-min Rain = 0
KCO1 161541Z 35007KT 18/12 A299 RMK A01 T01790115  RH  066%=      5-min Rain = 0
KCO1 161542Z 34011KT 18/12 A299 RMK A01 T01790118  RH  067%=      5-min Rain = 0
KCO1 161543Z 34009KT 18/12 A299 RMK A01 T01810118  RH  067%=      5-min Rain = 0
KCO1 161544Z 00011KT 18/12 A299 RMK A01 T01820118  RH  066%=      5-min Rain = 0
KCO1 161545Z 36010KT 18/12 A299 RMK A01 T01840117  RH  065%=      5-min Rain = 0
KCO1 161546Z 34009KT 18/12 A299 RMK A01 T01830116  RH  065%=      5-min Rain = 0
KCO1 161547Z 35009KT 18/11 A299 RMK A01 T01820114  RH  064%=      5-min Rain = 0
KCO1 161548Z 35011KT 18/12 A299 RMK A01 T01840116  RH  064%=      5-min Rain = 0
KCO1 161549Z 34010KT 19/11 A299 RMK A01 T01850114  RH  063%=      5-min Rain = 0
KCO1 161550Z 33012KT 19/12 A299 RMK A01 T01860115  RH  063%=      5-min Rain = 0
KCO1 161551Z 34011KT 19/12 A299 RMK A01 T01870115  RH  063%=      5-min Rain = 0
KCO1 161552Z 36009KT 19/12 A299 RMK A01 T01860116  RH  064%=      5-min Rain = 0
KCO1 161553Z 35009KT 19/12 A2989 RMK A01 T01860116  RH  064%=      5-min Rain = 0
KCO1 161554Z 35008KT 19/12 A2989 RMK A01 T01860116  RH  063%=      5-min Rain = 0
KCO1 161555Z 02009KT 19/12 A2989 RMK A01 T01870116  RH  063%=      5-min Rain = 0
KCO1 161556Z 01010KT 19/12 A2989 RMK A01 T01880115  RH  062%=      5-min Rain = 0
KCO1 161557Z 01011KT 19/11 A2989 RMK A01 T01890114  RH  062%=      5-min Rain = 0
KCO1 161558Z 00008KT 19/12 A2989 RMK A01 T01910116  RH  062%=      5-min Rain = 0
KCO1 161559Z 36008KT 19/11 A2989 RMK A01 T01930112  RH  060%=      5-min Rain = 0
KCO1 161600Z 34008KT 19/11 A2989 RMK A01 T01940113  RH  060%=      5-min Rain = 0
KCO1 161601Z 34011KT 19/11 A2989 RMK A01 T01940112  RH  059%=      5-min Rain = 0
KCO1 161602Z 33009KT 19/11 A2989 RMK A01 T01920110  RH  059%=      5-min Rain = 0
KCO1 161603Z 33009KT 19/11 A2989 RMK A01 T01910110  RH  059%=      5-min Rain = 0
KCO1 161604Z 34009KT 19/11 A2989 RMK A01 T01900110  RH  060%=      5-min Rain = 0
KCO1 161605Z 34010KT 19/11 A2989 RMK A01 T01900109  RH  060%=      5-min Rain = 0
KCO1 161606Z 34009KT 19/11 A299 RMK A01 T01900109  RH  060%=      5-min Rain = 0
KCO1 161607Z 35010KT 19/11 A299 RMK A01 T01900110  RH  060%=      5-min Rain = 0
KCO1 161608Z 33010KT 19/11 A299 RMK A01 T01890110  RH  060%=      5-min Rain = 0
KCO1 161609Z 34011KT 19/11 A299 RMK A01 T01890108  RH  059%=      5-min Rain = 0
KCO1 161610Z 34010KT 19/11 A299 RMK A01 T01890109  RH  060%=      5-min Rain = 0
KCO1 161611Z 34009KT 19/11 A299 RMK A01 T01890108  RH  059%=      5-min Rain = 0
KCO1 161612Z 34011KT 19/11 A299 RMK A01 T01890107  RH  059%=      5-min Rain = 0
KCO1 161613Z 34010KT 19/11 A299 RMK A01 T01900109  RH  059%=      5-min Rain = 0
KCO1 161614Z 34010KT 19/11 A299 RMK A01 T01910108  RH  059%=      5-min Rain = 0
KCO1 161615Z 34007KT 19/11 A299 RMK A01 T01900108  RH  059%=      5-min Rain = 0
KCO1 161616Z 35007KT 19/11 A299 RMK A01 T01900110  RH  060%=      5-min Rain = 0
KCO1 161617Z 33008KT 19/11 A299 RMK A01 T01910111  RH  060%=      5-min Rain = 0
KCO1 161618Z 33010KT 19/11 A299 RMK A01 T01910109  RH  059%=      5-min Rain = 0
KCO1 161619Z 34010KT 19/11 A299 RMK A01 T01900110  RH  060%=      5-min Rain = 0
KCO1 161620Z 34007KT 19/11 A299 RMK A01 T01880111  RH  061%=      5-min Rain = 0
KCO1 161621Z 33006KT 19/11 A299 RMK A01 T01880112  RH  061%=      5-min Rain = 0
KCO1 161622Z 33010G16KT 19/11 A299 RMK A01 T01900113  RH  061%=      5-min Rain = 0
KCO1 161623Z 35010KT 19/11 A299 RMK A01 T01910112  RH  060%=      5-min Rain = 0
KCO1 161624Z 33008KT 19/11 A299 RMK A01 T01910113  RH  061%=      5-min Rain = 0
KCO1 161625Z 36006KT 19/11 A299 RMK A01 T01900113  RH  061%=      5-min Rain = 0
KCO1 161626Z 00009KT 19/11 A299 RMK A01 T01910111  RH  060%=      5-min Rain = 0
KCO1 161627Z 36006KT 19/11 A299 RMK A01 T01920109  RH  059%=      5-min Rain = 0
KCO1 161628Z 35010KT 19/11 A299 RMK A01 T01930110  RH  059%=      5-min Rain = 0
KCO1 161629Z 36010KT 19/11 A299 RMK A01 T01940109  RH  058%=      5-min Rain = 0
KCO1 161630Z 35010KT 20/11 A299 RMK A01 T01950109  RH  058%=      5-min Rain = 0
KCO1 161631Z 36009KT 19/11 A299 RMK A01 T01940107  RH  057%=      5-min Rain = 0
KCO1 161632Z 00006KT 19/11 A299 RMK A01 T01940109  RH  058%=      5-min Rain = 0
KCO1 161633Z 36007KT 19/11 A299 RMK A01 T01940109  RH  058%=      5-min Rain = 0
KCO1 161634Z 35009KT 19/11 A299 RMK A01 T01930111  RH  059%=      5-min Rain = 0
KCO1 161635Z 00010KT 19/11 A299 RMK A01 T01940112  RH  059%=      5-min Rain = 0
KCO1 161636Z 34009KT 20/11 A299 RMK A01 T01960112  RH  058%=      5-min Rain = 0
KCO1 161637Z 33009KT 20/11 A299 RMK A01 T01960112  RH  059%=      5-min Rain = 0
KCO1 161638Z 33008KT 19/11 A299 RMK A01 T01940112  RH  059%=      5-min Rain = 0
KCO1 161639Z 34010KT 19/11 A299 RMK A01 T01920111  RH  060%=      5-min Rain = 0
KCO1 161640Z 34010KT 19/11 A299 RMK A01 T01930111  RH  059%=      5-min Rain = 0
KCO1 161641Z 34012KT 20/11 A299 RMK A01 T01950110  RH  058%=      5-min Rain = 0
KCO1 161642Z 33010KT 19/11 A299 RMK A01 T01940110  RH  058%=      5-min Rain = 0
KCO1 161643Z 33009G14KT 19/11 A299 RMK A01 T01930110  RH  059%=      5-min Rain = 0
KCO1 161644Z 33011KT 19/11 A299 RMK A01 T01930111  RH  059%=      5-min Rain = 0
KCO1 161645Z 35010KT 19/11 A2991 RMK A01 T01920109  RH  059%=      5-min Rain = 0
KCO1 161646Z 34012KT 19/11 A2991 RMK A01 T01910109  RH  059%=      5-min Rain = 0
KCO1 161647Z 34010KT 19/11 A2991 RMK A01 T01900109  RH  059%=      5-min Rain = 0
KCO1 161648Z 34009KT 19/11 A2991 RMK A01 T01890108  RH  059%=      5-min Rain = 0
KCO1 161649Z 34011KT 19/11 A2991 RMK A01 T01890106  RH  058%=      5-min Rain = 0
KCO1 161650Z 35011KT 19/11 A2991 RMK A01 T01890105  RH  058%=      5-min Rain = 0
KCO1 161651Z 35009KT 19/11 A2991 RMK A01 T01890105  RH  058%=      5-min Rain = 0
KCO1 161652Z 36008KT 19/11 A2991 RMK A01 T01890109  RH  059%=      5-min Rain = 0
KCO1 161653Z 35009KT 19/11 A2991 RMK A01 T01900110  RH  060%=      5-min Rain = 0
KCO1 161654Z 34008KT 19/11 A2991 RMK A01 T01880109  RH  060%=      5-min Rain = 0
KCO1 161655Z 01010KT 19/11 A2991 RMK A01 T01870108  RH  060%=      5-min Rain = 0
KCO1 161656Z 35009KT 19/11 A2991 RMK A01 T01890108  RH  059%=      5-min Rain = 0
KCO1 161657Z 34011KT 19/11 A2991 RMK A01 T01920107  RH  058%=      5-min Rain = 0
KCO1 161658Z 34011KT 19/11 A2991 RMK A01 T01910107  RH  058%=      5-min Rain = 0
KCO1 161659Z 33010KT 19/11 A2991 RMK A01 T01900107  RH  058%=      5-min Rain = 0
KCO1 161700Z 34009KT 19/11 A2991 RMK A01 T01900108  RH  059%=      5-min Rain = 0
KCO1 161701Z 34008KT 19/11 A2991 RMK A01 T01900110  RH  060%=      5-min Rain = 0
KCO1 161702Z 35012KT 19/11 A2991 RMK A01 T01910111  RH  060%=      5-min Rain = 0
KCO1 161703Z 35010KT 19/11 A2991 RMK A01 T01920110  RH  059%=      5-min Rain = 0
KCO1 161704Z 35012KT 19/11 A2991 RMK A01 T01920111  RH  060%=      5-min Rain = 0
KCO1 161705Z 35010KT 19/11 A2991 RMK A01 T01910111  RH  060%=      5-min Rain = 0
KCO1 161706Z 34008KT 19/11 A2991 RMK A01 T01890111  RH  060%=      5-min Rain = 0
KCO1 161707Z 34010KT 19/11 A2991 RMK A01 T01880112  RH  061%=      5-min Rain = 0
KCO1 161708Z 36012KT 19/11 A2991 RMK A01 T01910112  RH  060%=      5-min Rain = 0
KCO1 161709Z 01011KT 19/11 A2991 RMK A01 T01920112  RH  060%=      5-min Rain = 0
KCO1 161710Z 01011KT 19/11 A2991 RMK A01 T01920113  RH  060%=      5-min Rain = 0
KCO1 161711Z 01009KT 19/11 A2991 RMK A01 T01920113  RH  060%=      5-min Rain = 0
KCO1 161712Z 01008KT 19/11 A2991 RMK A01 T01920113  RH  060%=      5-min Rain = 0
KCO1 161713Z 34010KT 19/11 A2991 RMK A01 T01910114  RH  061%=      5-min Rain = 0
KCO1 161714Z 35012KT 19/12 A2991 RMK A01 T01910115  RH  061%=      5-min Rain = 0
KCO1 161715Z 35013KT 19/11 A2991 RMK A01 T01910114  RH  061%=      5-min Rain = 0
KCO1 161716Z 35011KT 19/11 A2991 RMK A01 T01890114  RH  061%=      5-min Rain = 0
KCO1 161717Z 35010KT 19/11 A2991 RMK A01 T01880114  RH  062%=      5-min Rain = 0
KCO1 161718Z 36008KT 19/11 A2991 RMK A01 T01860114  RH  063%=      5-min Rain = 0
KCO1 161719Z 01011KT 19/12 A2991 RMK A01 T01870115  RH  063%=      5-min Rain = 0
KCO1 161720Z 36010KT 19/11 A2991 RMK A01 T01880114  RH  062%=      5-min Rain = 0
KCO1 161721Z 35009KT 19/12 A2991 RMK A01 T01870115  RH  063%=      5-min Rain = 0
KCO1 161722Z 36008KT 19/12 A2991 RMK A01 T01880115  RH  062%=      5-min Rain = 0
KCO1 161723Z 36010KT 19/12 A2991 RMK A01 T01890115  RH  062%=      5-min Rain = 0
KCO1 161724Z 36010KT 19/12 A2991 RMK A01 T01900115  RH  061%=      5-min Rain = 0
KCO1 161725Z 35009KT 19/11 A2991 RMK A01 T01890113  RH  062%=      5-min Rain = 0
KCO1 161726Z 34011KT 19/11 A2991 RMK A01 T01880113  RH  062%=      5-min Rain = 0
KCO1 161727Z 34011KT 19/11 A2991 RMK A01 T01860112  RH  062%=      5-min Rain = 0
KCO1 161728Z 34012KT 19/11 A2991 RMK A01 T01850111  RH  062%=      5-min Rain = 0
KCO1 161729Z 33010KT 18/11 A2991 RMK A01 T01840111  RH  062%=      5-min Rain = 0
KCO1 161730Z 35010KT 18/11 A2991 RMK A01 T01840111  RH  062%=      5-min Rain = 0
KCO1 161731Z 01011KT 18/11 A2991 RMK A01 T01830111  RH  063%=      5-min Rain = 0
KCO1 161732Z 01010KT 19/11 A2991 RMK A01 T01850112  RH  062%=      5-min Rain = 0
KCO1 161733Z 35009KT 18/11 A2991 RMK A01 T01840110  RH  062%=      5-min Rain = 0
KCO1 161734Z 35007KT 18/11 A2991 RMK A01 T01820110  RH  063%=      5-min Rain = 0
KCO1 161735Z 36008KT 18/11 A2991 RMK A01 T01820111  RH  063%=      5-min Rain = 0
KCO1 161736Z 35010KT 18/11 A2991 RMK A01 T01840110  RH  062%=      5-min Rain = 0
KCO1 161737Z 36009KT 18/11 A2991 RMK A01 T01840109  RH  062%=      5-min Rain = 0
KCO1 161738Z 35011KT 18/11 A2991 RMK A01 T01830108  RH  062%=      5-min Rain = 0
KCO1 161739Z 35008KT 18/11 A2991 RMK A01 T01830108  RH  062%=      5-min Rain = 0
KCO1 161740Z 00009KT 18/11 A2991 RMK A01 T01830107  RH  061%=      5-min Rain = 0
KCO1 161741Z 01008KT 18/11 A2991 RMK A01 T01830107  RH  061%=      5-min Rain = 0
KCO1 161742Z 36007KT 18/11 A2991 RMK A01 T01840108  RH  061%=      5-min Rain = 0
KCO1 161743Z 35010KT 18/11 A2991 RMK A01 T01840108  RH  061%=      5-min Rain = 0
KCO1 161744Z 35010KT 18/11 A2991 RMK A01 T01840106  RH  060%=      5-min Rain = 0
KCO1 161745Z 35009KT 18/10 A2991 RMK A01 T01830104  RH  060%=      5-min Rain = 0
KCO1 161746Z 36008KT 18/11 A2991 RMK A01 T01810105  RH  061%=      5-min Rain = 0
KCO1 161747Z 00010KT 18/11 A2991 RMK A01 T01820106  RH  061%=      5-min Rain = 0
KCO1 161748Z 00010KT 18/11 A2991 RMK A01 T01830105  RH  060%=      5-min Rain = 0
KCO1 161749Z 35007KT 18/10 A2991 RMK A01 T01820104  RH  060%=      5-min Rain = 0
KCO1 161750Z 01009KT 18/10 A2991 RMK A01 T01820104  RH  061%=      5-min Rain = 0
KCO1 161751Z 00010KT 18/10 A2991 RMK A01 T01830103  RH  059%=      5-min Rain = 0
KCO1 161752Z 01011KT 18/10 A2991 RMK A01 T01840102  RH  059%=      5-min Rain = 0
KCO1 161753Z 01010KT 18/10 A2991 RMK A01 T01830101  RH  059%=      5-min Rain = 0
KCO1 161754Z 01008KT 18/10 A2992 RMK A01 T01830101  RH  059%=      5-min Rain = 0
KCO1 161755Z 35008KT 18/10 A2991 RMK A01 T01830102  RH  059%=      5-min Rain = 0
KCO1 161756Z 34010KT 18/10 A2991 RMK A01 T01840098  RH  057%=      5-min Rain = 0
KCO1 161757Z 00010KT 19/10 A2991 RMK A01 T01850099  RH  057%=      5-min Rain = 0
KCO1 161758Z 02007KT 18/10 A2991 RMK A01 T01840100  RH  058%=      5-min Rain = 0
KCO1 161759Z 01007KT 18/10 A2991 RMK A01 T01840101  RH  058%=      5-min Rain = 0
KCO1 161800Z 01009KT 19/10 A2991 RMK A01 T01850100  RH  058%=      5-min Rain = 0
KCO1 161801Z 35010KT 19/10 A2991 RMK A01 T01860100  RH  057%=      5-min Rain = 0
KCO1 161802Z 34010KT 19/10 A2991 RMK A01 T01860099  RH  057%=      5-min Rain = 0
KCO1 161803Z 35010KT 19/10 A2991 RMK A01 T01850100  RH  058%=      5-min Rain = 0
KCO1 161804Z 35008KT 19/10 A2991 RMK A01 T01850102  RH  058%=      5-min Rain = 0
KCO1 161805Z 34009KT 19/10 A2991 RMK A01 T01850102  RH  058%=      5-min Rain = 0
KCO1 161806Z 34009KT 18/10 A2991 RMK A01 T01840102  RH  059%=      5-min Rain = 0
KCO1 161807Z 34009KT 18/10 A2991 RMK A01 T01830101  RH  059%=      5-min Rain = 0
KCO1 161808Z 36010KT 18/10 A2991 RMK A01 T01830100  RH  058%=      5-min Rain = 0
KCO1 161809Z 36011KT 18/10 A2991 RMK A01 T01840098  RH  057%=      5-min Rain = 0
KCO1 161810Z 35010KT 19/10 A2991 RMK A01 T01850098  RH  057%=      5-min Rain = 0
KCO1 161811Z 34011KT 19/10 A2991 RMK A01 T01850098  RH  057%=      5-min Rain = 0
KCO1 161812Z 00012KT 19/10 A2991 RMK A01 T01850100  RH  057%=      5-min Rain = 0
KCO1 161813Z 36011KT 19/10 A2991 RMK A01 T01850100  RH  058%=      5-min Rain = 0
KCO1 161814Z 34009KT 19/10 A2991 RMK A01 T01850101  RH  058%=      5-min Rain = 0
KCO1 161815Z 34010KT 18/10 A2991 RMK A01 T01840102  RH  058%=      5-min Rain = 0
KCO1 161816Z 34009KT 19/10 A2991 RMK A01 T01850102  RH  058%=      5-min Rain = 0
KCO1 161817Z 35008KT 18/10 A299 RMK A01 T01840102  RH  059%=      5-min Rain = 0
KCO1 161818Z 01010KT 18/10 A2991 RMK A01 T01840102  RH  059%=      5-min Rain = 0
KCO1 161819Z 35008KT 19/10 A299 RMK A01 T01850102  RH  058%=      5-min Rain = 0
KCO1 161820Z 34007KT 19/10 A299 RMK A01 T01870102  RH  058%=      5-min Rain = 0
KCO1 161821Z 35006KT 19/10 A299 RMK A01 T01880102  RH  057%=      5-min Rain = 0
KCO1 161822Z 00007KT 19/10 A299 RMK A01 T01870102  RH  058%=      5-min Rain = 0
KCO1 161823Z 00011KT 19/10 A299 RMK A01 T01890102  RH  057%=      5-min Rain = 0
KCO1 161824Z 01012KT 19/10 A2991 RMK A01 T01900100  RH  056%=      5-min Rain = 0
KCO1 161825Z 01012KT 19/10 A2991 RMK A01 T01900099  RH  056%=      5-min Rain = 0
KCO1 161826Z 01012KT 19/10 A2991 RMK A01 T01900100  RH  056%=      5-min Rain = 0
KCO1 161827Z 02009KT 19/10 A2991 RMK A01 T01900100  RH  056%=      5-min Rain = 0
KCO1 161828Z 36009KT 19/10 A2991 RMK A01 T01900101  RH  056%=      5-min Rain = 0
KCO1 161829Z 36007KT 19/10 A2991 RMK A01 T01910100  RH  055%=      5-min Rain = 0
KCO1 161830Z 35004KT 19/10 A299 RMK A01 T01910100  RH  056%=      5-min Rain = 0
KCO1 161831Z 36007KT 19/10 A2991 RMK A01 T01910101  RH  056%=      5-min Rain = 0
KCO1 161832Z 35011KT 19/10 A2991 RMK A01 T01930101  RH  055%=      5-min Rain = 0
KCO1 161833Z 35011KT 19/10 A2991 RMK A01 T01930099  RH  054%=      5-min Rain = 0
KCO1 161834Z 35010KT 19/10 A2991 RMK A01 T01930099  RH  054%=      5-min Rain = 0
KCO1 161835Z 36008KT 19/10 A299 RMK A01 T01930098  RH  054%=      5-min Rain = 0
KCO1 161836Z 35006KT 19/10 A299 RMK A01 T01910098  RH  055%=      5-min Rain = 0
KCO1 161837Z 34008KT 19/10 A2991 RMK A01 T01900098  RH  055%=      5-min Rain = 0
KCO1 161838Z 00010KT 19/10 A2991 RMK A01 T01900098  RH  055%=      5-min Rain = 0
KCO1 161839Z 00007KT 19/10 A2991 RMK A01 T01910099  RH  055%=      5-min Rain = 0
KCO1 161840Z 35007KT 19/10 A2991 RMK A01 T01930100  RH  055%=      5-min Rain = 0
KCO1 161841Z 35010KT 20/10 A2991 RMK A01 T01950099  RH  054%=      5-min Rain = 0
KCO1 161842Z 36010KT 19/10 A2991 RMK A01 T01930098  RH  054%=      5-min Rain = 0
KCO1 161843Z 35010KT 19/10 A2991 RMK A01 T01930099  RH  055%=      5-min Rain = 0
KCO1 161844Z 35010KT 19/10 A2991 RMK A01 T01930099  RH  055%=      5-min Rain = 0
KCO1 161845Z 35008KT 19/10 A2991 RMK A01 T01920099  RH  055%=      5-min Rain = 0
KCO1 161846Z 00009KT 19/10 A2991 RMK A01 T01920098  RH  054%=      5-min Rain = 0
KCO1 161847Z 01010KT 19/10 A299 RMK A01 T01930097  RH  054%=      5-min Rain = 0
KCO1 161848Z 00010KT 20/10 A299 RMK A01 T01950096  RH  053%=      5-min Rain = 0
KCO1 161849Z 36008KT 20/10 A299 RMK A01 T01950095  RH  052%=      5-min Rain = 0
KCO1 161850Z 02010KT 20/10 A299 RMK A01 T01950097  RH  053%=      5-min Rain = 0
KCO1 161851Z 01009KT 20/10 A299 RMK A01 T01960097  RH  053%=      5-min Rain = 0
KCO1 161852Z 01006KT 20/10 A299 RMK A01 T01960098  RH  053%=      5-min Rain = 0
KCO1 161853Z 35008KT 20/10 A299 RMK A01 T01980098  RH  052%=      5-min Rain = 0
KCO1 161854Z 34009KT 20/10 A299 RMK A01 T02000095  RH  051%=      5-min Rain = 0
KCO1 161855Z 00010KT 20/09 A299 RMK A01 T02000094  RH  050%=      5-min Rain = 0
KCO1 161856Z 01009KT 20/09 A299 RMK A01 T01990094  RH  051%=      5-min Rain = 0
KCO1 161857Z 36007KT 20/09 A299 RMK A01 T01990093  RH  050%=      5-min Rain = 0
KCO1 161858Z 01009KT 20/09 A299 RMK A01 T01970091  RH  050%=      5-min Rain = 0
KCO1 161859Z 34008KT 20/09 A299 RMK A01 T01960092  RH  051%=      5-min Rain = 0
KCO1 161900Z 35010KT 20/09 A299 RMK A01 T01950092  RH  051%=      5-min Rain = 0
KCO1 161901Z 35010KT 20/09 A299 RMK A01 T01950092  RH  051%=      5-min Rain = 0
KCO1 161902Z 01011KT 20/09 A299 RMK A01 T01970093  RH  051%=      5-min Rain = 0
KCO1 161903Z 35010KT 20/09 A299 RMK A01 T01970093  RH  051%=      5-min Rain = 0
KCO1 161904Z 35007KT 20/09 A299 RMK A01 T01950094  RH  052%=      5-min Rain = 0
KCO1 161905Z 04008KT 19/10 A299 RMK A01 T01940095  RH  052%=      5-min Rain = 0
KCO1 161906Z 04008KT 19/10 A299 RMK A01 T01940095  RH  053%=      5-min Rain = 0
KCO1 161907Z 04008KT 19/10 A299 RMK A01 T01930096  RH  053%=      5-min Rain = 0
KCO1 161908Z 01010KT 19/10 A299 RMK A01 T01930095  RH  053%=      5-min Rain = 0
KCO1 161909Z 01009KT 19/09 A2991 RMK A01 T01940094  RH  052%=      5-min Rain = 0
KCO1 161910Z 00008KT 20/09 A2991 RMK A01 T01950092  RH  052%=      5-min Rain = 0
KCO1 161911Z 02009KT 19/09 A2991 RMK A01 T01940092  RH  052%=      5-min Rain = 0
KCO1 161912Z 02009KT 19/09 A2991 RMK A01 T01940092  RH  052%=      5-min Rain = 0
KCO1 161913Z 01010KT 19/09 A2991 RMK A01 T01940093  RH  052%=      5-min Rain = 0
KCO1 161914Z 01008KT 19/09 A2991 RMK A01 T01940092  RH  052%=      5-min Rain = 0
KCO1 161915Z 00007KT 19/09 A2991 RMK A01 T01930092  RH  052%=      5-min Rain = 0
KCO1 161916Z 01007KT 19/09 A2991 RMK A01 T01910091  RH  052%=      5-min Rain = 0
KCO1 161917Z 02009KT 19/09 A2991 RMK A01 T01910091  RH  052%=      5-min Rain = 0
KCO1 161918Z 04008KT 19/09 A2991 RMK A01 T01910093  RH  053%=      5-min Rain = 0
KCO1 161919Z 03009KT 19/09 A2991 RMK A01 T01920093  RH  053%=      5-min Rain = 0
KCO1 161920Z 02009KT 19/09 A2991 RMK A01 T01930092  RH  052%=      5-min Rain = 0
KCO1 161921Z 35009KT 19/09 A2991 RMK A01 T01930092  RH  052%=      5-min Rain = 0
KCO1 161922Z 01009KT 19/09 A2991 RMK A01 T01930091  RH  051%=      5-min Rain = 0
KCO1 161923Z 02008KT 19/09 A2991 RMK A01 T01930093  RH  052%=      5-min Rain = 0
KCO1 161924Z 02007KT 19/09 A2991 RMK A01 T01920093  RH  053%=      5-min Rain = 0
KCO1 161925Z 02005KT 19/09 A2991 RMK A01 T01920093  RH  053%=      5-min Rain = 0
KCO1 161926Z 02006KT 19/09 A2991 RMK A01 T01920093  RH  053%=      5-min Rain = 0
KCO1 161927Z 35007KT 19/09 A2991 RMK A01 T01910093  RH  053%=      5-min Rain = 0
KCO1 161928Z 36009KT 19/09 A2991 RMK A01 T01900093  RH  053%=      5-min Rain = 0
KCO1 161929Z 00010KT 19/09 A2991 RMK A01 T01910094  RH  053%=      5-min Rain = 0
KCO1 161930Z 00009KT 19/09 A299 RMK A01 T01910094  RH  054%=      5-min Rain = 0
KCO1 161931Z 36008KT 19/09 A299 RMK A01 T01910094  RH  053%=      5-min Rain = 0
KCO1 161932Z 01007KT 19/10 A299 RMK A01 T01910095  RH  054%=      5-min Rain = 0
KCO1 161933Z 00007KT 19/09 A299 RMK A01 T01900094  RH  054%=      5-min Rain = 0
KCO1 161934Z 00006KT 19/09 A299 RMK A01 T01890094  RH  054%=      5-min Rain = 0
KCO1 161935Z 36004KT 19/09 A299 RMK A01 T01890094  RH  054%=      5-min Rain = 0
KCO1 161936Z 01006KT 19/10 A299 RMK A01 T01890095  RH  054%=      5-min Rain = 0
KCO1 161937Z 03009KT 19/10 A299 RMK A01 T01890095  RH  054%=      5-min Rain = 0
KCO1 161938Z 02010KT 19/10 A2991 RMK A01 T01900095  RH  054%=      5-min Rain = 0
KCO1 161939Z 01008KT 19/10 A2991 RMK A01 T01900095  RH  054%=      5-min Rain = 0
KCO1 161940Z 36006KT 19/10 A2991 RMK A01 T01890095  RH  054%=      5-min Rain = 0
KCO1 161941Z 35007KT 19/10 A2991 RMK A01 T01900096  RH  054%=      5-min Rain = 0
KCO1 161942Z 00005KT 19/10 A2991 RMK A01 T01890096  RH  054%=      5-min Rain = 0
KCO1 161943Z 02004KT 19/10 A2991 RMK A01 T01880095  RH  055%=      5-min Rain = 0
KCO1 161944Z 35008KT 19/10 A2991 RMK A01 T01880096  RH  055%=      5-min Rain = 0
KCO1 161945Z 00008KT 19/10 A2991 RMK A01 T01890095  RH  054%=      5-min Rain = 0
KCO1 161946Z 01008KT 19/09 A2991 RMK A01 T01890094  RH  054%=      5-min Rain = 0
KCO1 161947Z 01008KT 19/09 A2991 RMK A01 T01900094  RH  054%=      5-min Rain = 0
KCO1 161948Z 00007KT 19/10 A2991 RMK A01 T01910095  RH  054%=      5-min Rain = 0
KCO1 161949Z 00007KT 19/09 A2991 RMK A01 T01900094  RH  054%=      5-min Rain = 0
KCO1 161950Z 36007KT 19/10 A2991 RMK A01 T01890095  RH  054%=      5-min Rain = 0
KCO1 161951Z 01006KT 19/10 A2991 RMK A01 T01880096  RH  055%=      5-min Rain = 0
KCO1 161952Z 01006KT 19/10 A2991 RMK A01 T01880096  RH  055%=      5-min Rain = 0
KCO1 161953Z 02006KT 19/10 A2991 RMK A01 T01880096  RH  055%=      5-min Rain = 0
KCO1 161954Z 02005KT 19/10 A2991 RMK A01 T01880097  RH  055%=      5-min Rain = 0
KCO1 161955Z 01007KT 19/10 A2991 RMK A01 T01900097  RH  055%=      5-min Rain = 0
KCO1 161956Z 03007KT 19/10 A2991 RMK A01 T01900096  RH  055%=      5-min Rain = 0
KCO1 161957Z 02009KT 19/10 A2991 RMK A01 T01900097  RH  055%=      5-min Rain = 0
KCO1 161958Z 02008KT 19/10 A2991 RMK A01 T01890097  RH  055%=      5-min Rain = 0
KCO1 161959Z 02009KT 19/10 A2991 RMK A01 T01890098  RH  055%=      5-min Rain = 0
KCO1 162000Z 02008KT 19/10 A2992 RMK A01 T01880098  RH  056%=      5-min Rain = 0
KCO1 162001Z 02006KT 19/10 A2991 RMK A01 T01880098  RH  056%=      5-min Rain = 0
KCO1 162002Z 02007KT 19/10 A2991 RMK A01 T01880098  RH  056%=      5-min Rain = 0
KCO1 162003Z 02007KT 19/10 A2991 RMK A01 T01880098  RH  056%=      5-min Rain = 0
KCO1 162004Z 00006KT 19/10 A2991 RMK A01 T01880098  RH  056%=      5-min Rain = 0
KCO1 162005Z 02005KT 19/10 A2991 RMK A01 T01870098  RH  056%=      5-min Rain = 0
KCO1 162006Z 02005KT 19/10 A2991 RMK A01 T01870098  RH  056%=      5-min Rain = 0
KCO1 162007Z 02007KT 19/10 A2991 RMK A01 T01870099  RH  057%=      5-min Rain = 0
KCO1 162008Z 02006KT 19/10 A2991 RMK A01 T01870099  RH  057%=      5-min Rain = 0
KCO1 162009Z 04007KT 19/10 A2991 RMK A01 T01870100  RH  057%=      5-min Rain = 0
KCO1 162010Z 03008KT 19/10 A2991 RMK A01 T01870101  RH  057%=      5-min Rain = 0
KCO1 162011Z 04006KT 19/10 A2991 RMK A01 T01870102  RH  058%=      5-min Rain = 0
KCO1 162012Z 04008KT 19/10 A2991 RMK A01 T01870102  RH  058%=      5-min Rain = 0
KCO1 162013Z 03009KT 19/10 A2991 RMK A01 T01870103  RH  058%=      5-min Rain = 0
KCO1 162014Z 04010KT 19/10 A2991 RMK A01 T01870103  RH  058%=      5-min Rain = 0
KCO1 162015Z 04011KT 19/10 A2991 RMK A01 T01860103  RH  058%=      5-min Rain = 0
KCO1 162016Z 04011KT 19/10 A2991 RMK A01 T01850103  RH  059%=      5-min Rain = 0
KCO1 162017Z 03010KT 18/10 A2991 RMK A01 T01840103  RH  059%=      5-min Rain = 0
KCO1 162018Z 04008KT 18/10 A2991 RMK A01 T01840103  RH  059%=      5-min Rain = 0
KCO1 162019Z 03007G12KT 18/10 A2991 RMK A01 T01840103  RH  059%=      5-min Rain = 0
KCO1 162020Z 04010KT 19/10 A2991 RMK A01 T01850103  RH  059%=      5-min Rain = 0
KCO1 162021Z 04011KT 19/10 A2991 RMK A01 T01850103  RH  059%=      5-min Rain = 0
KCO1 162022Z 04010KT 19/10 A2991 RMK A01 T01850102  RH  059%=      5-min Rain = 0
KCO1 162023Z 04010KT 18/10 A2991 RMK A01 T01840102  RH  059%=      5-min Rain = 0
KCO1 162024Z 03012KT 18/10 A2991 RMK A01 T01840102  RH  059%=      5-min Rain = 0
KCO1 162025Z 03010KT 18/10 A2991 RMK A01 T01830102  RH  059%=      5-min Rain = 0
KCO1 162026Z 05010KT 18/10 A2991 RMK A01 T01830102  RH  059%=      5-min Rain = 0
KCO1 162027Z 04010KT 18/10 A2991 RMK A01 T01820101  RH  059%=      5-min Rain = 0
KCO1 162028Z 03009KT 18/10 A2991 RMK A01 T01830101  RH  059%=      5-min Rain = 0
KCO1 162029Z 03010KT 18/10 A2991 RMK A01 T01830102  RH  059%=      5-min Rain = 0
KCO1 162030Z 03010KT 18/10 A2991 RMK A01 T01830101  RH  059%=      5-min Rain = 0
KCO1 162031Z 02010KT 18/10 A2991 RMK A01 T01830101  RH  059%=      5-min Rain = 0
KCO1 162032Z 02009KT 18/10 A2991 RMK A01 T01830101  RH  059%=      5-min Rain = 0
KCO1 162033Z 03010KT 18/10 A2991 RMK A01 T01830100  RH  058%=      5-min Rain = 0
KCO1 162034Z 03011KT 18/10 A2991 RMK A01 T01830100  RH  058%=      5-min Rain = 0
KCO1 162035Z 03011KT 18/10 A2991 RMK A01 T01820099  RH  059%=      5-min Rain = 0
KCO1 162036Z 03012KT 18/10 A2991 RMK A01 T01820099  RH  059%=      5-min Rain = 0
KCO1 162037Z 02010KT 18/10 A2991 RMK A01 T01810099  RH  059%=      5-min Rain = 0
KCO1 162038Z 02010KT 18/10 A2991 RMK A01 T01810099  RH  059%=      5-min Rain = 0
KCO1 162039Z 03010KT 18/10 A2991 RMK A01 T01810098  RH  058%=      5-min Rain = 0
KCO1 162040Z 04010KT 18/10 A2991 RMK A01 T01810098  RH  058%=      5-min Rain = 0
KCO1 162041Z 03010KT 18/10 A2991 RMK A01 T01810097  RH  058%=      5-min Rain = 0
KCO1 162042Z 03011KT 18/10 A2991 RMK A01 T01800096  RH  058%=      5-min Rain = 0
KCO1 162043Z 04012KT 18/10 A2991 RMK A01 T01800095  RH  058%=      5-min Rain = 0
KCO1 162044Z 04012KT 18/09 A2991 RMK A01 T01790094  RH  057%=      5-min Rain = 0
KCO1 162045Z 04010KT 18/09 A2991 RMK A01 T01790094  RH  058%=      5-min Rain = 0
KCO1 162046Z 03011KT 18/09 A2991 RMK A01 T01790093  RH  057%=      5-min Rain = 0
KCO1 162047Z 04009KT 18/09 A2991 RMK A01 T01790093  RH  057%=      5-min Rain = 0
KCO1 162048Z 04010KT 18/09 A2991 RMK A01 T01790093  RH  057%=      5-min Rain = 0
KCO1 162049Z 05010KT 18/09 A2991 RMK A01 T01780092  RH  057%=      5-min Rain = 0
KCO1 162050Z 05011KT 18/09 A2991 RMK A01 T01780092  RH  057%=      5-min Rain = 0
KCO1 162051Z 05010KT 18/09 A2991 RMK A01 T01780093  RH  057%=      5-min Rain = 0
KCO1 162052Z 05010KT 18/09 A2991 RMK A01 T01780092  RH  057%=      5-min Rain = 0
KCO1 162053Z 05011KT 18/09 A2991 RMK A01 T01780092  RH  057%=      5-min Rain = 0
KCO1 162054Z 05012KT 18/09 A2991 RMK A01 T01790091  RH  057%=      5-min Rain = 0
KCO1 162055Z 05010KT 18/09 A2991 RMK A01 T01780091  RH  057%=      5-min Rain = 0
KCO1 162056Z 05012KT 18/09 A2991 RMK A01 T01780091  RH  057%=      5-min Rain = 0
KCO1 162057Z 04009KT 18/09 A2991 RMK A01 T01780091  RH  057%=      5-min Rain = 0
KCO1 162058Z 03009KT 18/09 A2991 RMK A01 T01780091  RH  057%=      5-min Rain = 0
KCO1 162059Z 03011KT 18/09 A2991 RMK A01 T01780090  RH  056%=      5-min Rain = 0
KCO1 162100Z 03011KT 18/09 A2991 RMK A01 T01780089  RH  056%=      5-min Rain = 0
KCO1 162101Z 03010KT 18/09 A2991 RMK A01 T01780089  RH  056%=      5-min Rain = 0
KCO1 162102Z 03011KT 18/09 A2991 RMK A01 T01770089  RH  056%=      5-min Rain = 0
KCO1 162103Z 04011KT 18/09 A2991 RMK A01 T01770089  RH  056%=      5-min Rain = 0
KCO1 162104Z 04011KT 18/09 A2991 RMK A01 T01760090  RH  057%=      5-min Rain = 0
KCO1 162105Z 04009KT 18/09 A2991 RMK A01 T01760090  RH  057%=      5-min Rain = 0
KCO1 162106Z 04008KT 18/09 A2991 RMK A01 T01760090  RH  057%=      5-min Rain = 0
KCO1 162107Z 04010KT 18/09 A2991 RMK A01 T01770090  RH  057%=      5-min Rain = 0
KCO1 162108Z 04009KT 18/09 A2991 RMK A01 T01770090  RH  057%=      5-min Rain = 0
KCO1 162109Z 05010KT 18/09 A2991 RMK A01 T01770091  RH  057%=      5-min Rain = 0
KCO1 162110Z 05010KT 18/09 A299 RMK A01 T01770091  RH  057%=      5-min Rain = 0
KCO1 162111Z 05010KT 18/09 A299 RMK A01 T01770090  RH  057%=      5-min Rain = 0
KCO1 162112Z 05010KT 18/09 A299 RMK A01 T01770090  RH  057%=      5-min Rain = 0
KCO1 162113Z 05012KT 18/09 A299 RMK A01 T01760090  RH  057%=      5-min Rain = 0
KCO1 162114Z 05012KT 18/09 A299 RMK A01 T01760089  RH  057%=      5-min Rain = 0
KCO1 162115Z 05010KT 18/09 A299 RMK A01 T01760089  RH  057%=      5-min Rain = 0
KCO1 162116Z 04011KT 18/09 A299 RMK A01 T01760088  RH  056%=      5-min Rain = 0
KCO1 162117Z 05012KT 18/09 A299 RMK A01 T01760088  RH  056%=      5-min Rain = 0
KCO1 162118Z 05012KT 18/09 A299 RMK A01 T01760088  RH  056%=      5-min Rain = 0
KCO1 162119Z 05011KT 18/09 A299 RMK A01 T01760088  RH  056%=      5-min Rain = 0
KCO1 162120Z 05011KT 18/09 A299 RMK A01 T01750087  RH  056%=      5-min Rain = 0
KCO1 162121Z 05010KT 18/09 A299 RMK A01 T01750087  RH  056%=      5-min Rain = 0
KCO1 162122Z 05010KT 18/09 A299 RMK A01 T01750087  RH  056%=      5-min Rain = 0
KCO1 162123Z 05009KT 18/09 A299 RMK A01 T01750087  RH  056%=      5-min Rain = 0
KCO1 162124Z 05009KT 18/09 A299 RMK A01 T01760088  RH  056%=      5-min Rain = 0
KCO1 162125Z 05010KT 18/09 A299 RMK A01 T01760089  RH  057%=      5-min Rain = 0
KCO1 162126Z 04010KT 18/09 A299 RMK A01 T01760088  RH  056%=      5-min Rain = 0
KCO1 162127Z 05011KT 18/09 A299 RMK A01 T01760089  RH  057%=      5-min Rain = 0
KCO1 162128Z 04011KT 18/09 A299 RMK A01 T01750088  RH  057%=      5-min Rain = 0
KCO1 162129Z 04011KT 18/09 A299 RMK A01 T01750088  RH  057%=      5-min Rain = 0
KCO1 162130Z 04010KT 18/09 A299 RMK A01 T01750087  RH  056%=      5-min Rain = 0
KCO1 162131Z 05009KT 18/09 A299 RMK A01 T01750087  RH  056%=      5-min Rain = 0
KCO1 162132Z 04009KT 17/09 A299 RMK A01 T01740087  RH  056%=      5-min Rain = 0
KCO1 162133Z 05009KT 18/09 A299 RMK A01 T01750087  RH  056%=      5-min Rain = 0
KCO1 162134Z 05011KT 18/09 A299 RMK A01 T01750087  RH  056%=      5-min Rain = 0
KCO1 162135Z 05011KT 18/09 A299 RMK A01 T01750087  RH  056%=      5-min Rain = 0
KCO1 162136Z 06011KT 18/09 A299 RMK A01 T01750087  RH  056%=      5-min Rain = 0
KCO1 162137Z 05011KT 18/09 A299 RMK A01 T01750087  RH  056%=      5-min Rain = 0
KCO1 162138Z 06010KT 18/09 A299 RMK A01 T01750087  RH  056%=      5-min Rain = 0
KCO1 162139Z 05010KT 18/09 A299 RMK A01 T01760088  RH  056%=      5-min Rain = 0
KCO1 162140Z 06011KT 18/09 A299 RMK A01 T01770088  RH  056%=      5-min Rain = 0
KCO1 162141Z 06010KT 18/09 A299 RMK A01 T01760087  RH  056%=      5-min Rain = 0
KCO1 162142Z 06010KT 18/09 A299 RMK A01 T01760086  RH  056%=      5-min Rain = 0
KCO1 162143Z 05011KT 18/09 A2989 RMK A01 T01760086  RH  056%=      5-min Rain = 0
KCO1 162144Z 05008KT 18/09 A299 RMK A01 T01760086  RH  056%=      5-min Rain = 0
KCO1 162145Z 06008KT 18/09 A299 RMK A01 T01760086  RH  056%=      5-min Rain = 0
KCO1 162146Z 07009KT 18/09 A299 RMK A01 T01760086  RH  056%=      5-min Rain = 0
KCO1 162147Z 06012KT 18/09 A299 RMK A01 T01760087  RH  056%=      5-min Rain = 0
KCO1 162148Z 06013KT 18/09 A299 RMK A01 T01750086  RH  056%=      5-min Rain = 0
KCO1 162149Z 05011KT 18/09 A299 RMK A01 T01750086  RH  056%=      5-min Rain = 0
KCO1 162150Z 05011KT 17/09 A299 RMK A01 T01740085  RH  056%=      5-min Rain = 0
KCO1 162151Z 05012KT 17/09 A299 RMK A01 T01740085  RH  056%=      5-min Rain = 0
KCO1 162152Z 06009KT 17/09 A299 RMK A01 T01740085  RH  056%=      5-min Rain = 0
KCO1 162153Z 06011KT 17/09 A299 RMK A01 T01740085  RH  056%=      5-min Rain = 0
KCO1 162154Z 06011KT 18/09 A299 RMK A01 T01750085  RH  056%=      5-min Rain = 0
KCO1 162155Z 07010KT 18/09 A299 RMK A01 T01750085  RH  055%=      5-min Rain = 0
KCO1 162156Z 06009KT 17/08 A299 RMK A01 T01740084  RH  056%=      5-min Rain = 0
KCO1 162157Z 07008KT 18/09 A299 RMK A01 T01750085  RH  056%=      5-min Rain = 0
KCO1 162158Z 06010KT 18/09 A299 RMK A01 T01760085  RH  055%=      5-min Rain = 0
KCO1 162159Z 06010KT 18/09 A299 RMK A01 T01760085  RH  055%=      5-min Rain = 0
KCO1 162200Z 06013KT 18/08 A299 RMK A01 T01760084  RH  055%=      5-min Rain = 0
KCO1 162201Z 05011KT 18/08 A299 RMK A01 T01750082  RH  054%=      5-min Rain = 0
KCO1 162202Z 06009KT 18/08 A299 RMK A01 T01750082  RH  055%=      5-min Rain = 0
KCO1 162203Z 06008KT 18/08 A299 RMK A01 T01750082  RH  055%=      5-min Rain = 0
KCO1 162204Z 07008KT 18/08 A2989 RMK A01 T01760083  RH  055%=      5-min Rain = 0
KCO1 162205Z 06007KT 18/08 A2989 RMK A01 T01760083  RH  055%=      5-min Rain = 0
KCO1 162206Z 06009KT 18/08 A2989 RMK A01 T01760083  RH  055%=      5-min Rain = 0
KCO1 162207Z 07009KT 18/08 A2989 RMK A01 T01760084  RH  055%=      5-min Rain = 0
KCO1 162208Z 07011KT 18/08 A2989 RMK A01 T01760084  RH  055%=      5-min Rain = 0
KCO1 162209Z 07010KT 18/08 A2989 RMK A01 T01750083  RH  055%=      5-min Rain = 0
KCO1 162210Z 08008KT 18/08 A2989 RMK A01 T01750083  RH  055%=      5-min Rain = 0
KCO1 162211Z 08009KT 18/08 A2989 RMK A01 T01750084  RH  055%=      5-min Rain = 0
KCO1 162212Z 08010KT 18/08 A2989 RMK A01 T01760083  RH  054%=      5-min Rain = 0
KCO1 162213Z 07008KT 18/08 A2989 RMK A01 T01760083  RH  054%=      5-min Rain = 0
KCO1 162214Z 06009KT 18/08 A2989 RMK A01 T01760082  RH  054%=      5-min Rain = 0
KCO1 162215Z 07011KT 18/08 A2989 RMK A01 T01770083  RH  054%=      5-min Rain = 0
KCO1 162216Z 07011KT 18/08 A2989 RMK A01 T01760083  RH  054%=      5-min Rain = 0
KCO1 162217Z 07009KT 18/08 A2989 RMK A01 T01760083  RH  054%=      5-min Rain = 0
KCO1 162218Z 06010KT 18/08 A2989 RMK A01 T01760083  RH  054%=      5-min Rain = 0
KCO1 162219Z 06010KT 18/08 A2989 RMK A01 T01770082  RH  054%=      5-min Rain = 0
KCO1 162220Z 05011KT 18/08 A299 RMK A01 T01770082  RH  054%=      5-min Rain = 0
KCO1 162221Z 06010KT 18/08 A299 RMK A01 T01770082  RH  054%=      5-min Rain = 0
KCO1 162222Z 05009KT 18/08 A299 RMK A01 T01780082  RH  053%=      5-min Rain = 0
KCO1 162223Z 05010KT 18/08 A299 RMK A01 T01770082  RH  054%=      5-min Rain = 0
KCO1 162224Z 05011KT 18/08 A299 RMK A01 T01780083  RH  054%=      5-min Rain = 0
KCO1 162225Z 05008KT 18/08 A299 RMK A01 T01780082  RH  053%=      5-min Rain = 0
KCO1 162226Z 05008KT 18/08 A299 RMK A01 T01780082  RH  054%=      5-min Rain = 0
KCO1 162227Z 04009KT 18/08 A299 RMK A01 T01790083  RH  053%=      5-min Rain = 0
KCO1 162228Z 04011KT 18/08 A299 RMK A01 T01790082  RH  053%=      5-min Rain = 0
KCO1 162229Z 06011KT 18/08 A2991 RMK A01 T01790082  RH  053%=      5-min Rain = 0
KCO1 162230Z 07009KT 18/08 A299 RMK A01 T01780081  RH  053%=      5-min Rain = 0
KCO1 162231Z 07009KT 18/08 A2991 RMK A01 T01790082  RH  053%=      5-min Rain = 0
KCO1 162232Z 06009KT 18/08 A2991 RMK A01 T01790082  RH  053%=      5-min Rain = 0
KCO1 162233Z 07008KT 18/08 A2991 RMK A01 T01790082  RH  053%=      5-min Rain = 0
KCO1 162234Z 06011KT 18/08 A2991 RMK A01 T01790082  RH  053%=      5-min Rain = 0
KCO1 162235Z 06011KT 18/08 A2991 RMK A01 T01790083  RH  053%=      5-min Rain = 0
KCO1 162236Z 06010KT 18/08 A2991 RMK A01 T01790084  RH  053%=      5-min Rain = 0
KCO1 162237Z 06009KT 18/08 A2991 RMK A01 T01790084  RH  054%=      5-min Rain = 0
KCO1 162238Z 06009KT 18/08 A2991 RMK A01 T01790084  RH  054%=      5-min Rain = 0
KCO1 162239Z 06009KT 18/08 A2991 RMK A01 T01800084  RH  054%=      5-min Rain = 0
KCO1 162240Z 05009KT 18/08 A2991 RMK A01 T01790084  RH  053%=      5-min Rain = 0
KCO1 162241Z 06010KT 18/08 A2991 RMK A01 T01790083  RH  054%=      5-min Rain = 0
KCO1 162242Z 06010KT 18/08 A299 RMK A01 T01790084  RH  054%=      5-min Rain = 0
KCO1 162243Z 06010KT 18/08 A299 RMK A01 T01790083  RH  054%=      5-min Rain = 0
KCO1 162244Z 06011KT 18/08 A299 RMK A01 T01800084  RH  053%=      5-min Rain = 0
KCO1 162245Z 06008KT 18/08 A299 RMK A01 T01790083  RH  053%=      5-min Rain = 0
KCO1 162246Z 06009KT 18/08 A299 RMK A01 T01790084  RH  053%=      5-min Rain = 0
KCO1 162247Z 06010KT 18/08 A299 RMK A01 T01790084  RH  053%=      5-min Rain = 0
KCO1 162248Z 06010KT 18/08 A299 RMK A01 T01790084  RH  054%=      5-min Rain = 0
KCO1 162249Z 06008KT 18/08 A299 RMK A01 T01790084  RH  054%=      5-min Rain = 0
KCO1 162250Z 06009KT 18/08 A299 RMK A01 T01790084  RH  054%=      5-min Rain = 0
KCO1 162251Z 05008KT 18/08 A299 RMK A01 T01790084  RH  054%=      5-min Rain = 0
KCO1 162252Z 05008KT 18/08 A299 RMK A01 T01790084  RH  054%=      5-min Rain = 0
KCO1 162253Z 07008KT 18/09 A299 RMK A01 T01790085  RH  054%=      5-min Rain = 0
KCO1 162254Z 07010KT 18/09 A2991 RMK A01 T01810085  RH  054%=      5-min Rain = 0
KCO1 162255Z 06010KT 18/09 A2991 RMK A01 T01820086  RH  053%=      5-min Rain = 0
KCO1 162256Z 05009KT 18/09 A2991 RMK A01 T01820085  RH  053%=      5-min Rain = 0
KCO1 162257Z 06009KT 18/09 A2991 RMK A01 T01820085  RH  053%=      5-min Rain = 0
KCO1 162258Z 06010KT 18/09 A299 RMK A01 T01830086  RH  053%=      5-min Rain = 0
KCO1 162259Z 05011KT 18/09 A299 RMK A01 T01820085  RH  053%=      5-min Rain = 0
KCO1 162300Z 06010KT 18/08 A2991 RMK A01 T01810084  RH  053%=      5-min Rain = 0
KCO1 162301Z 04010KT 18/09 A2991 RMK A01 T01810085  RH  053%=      5-min Rain = 0
KCO1 162302Z 04010KT 18/09 A299 RMK A01 T01820085  RH  053%=      5-min Rain = 0
KCO1 162303Z 04008KT 18/08 A299 RMK A01 T01810084  RH  053%=      5-min Rain = 0
KCO1 162304Z 05009KT 18/09 A299 RMK A01 T01810086  RH  054%=      5-min Rain = 0
KCO1 162305Z 06013KT 18/09 A299 RMK A01 T01830086  RH  053%=      5-min Rain = 0
KCO1 162306Z 06012KT 18/09 A299 RMK A01 T01830085  RH  053%=      5-min Rain = 0
KCO1 162307Z 06012KT 18/09 A299 RMK A01 T01820085  RH  053%=      5-min Rain = 0
KCO1 162308Z 06010KT 18/08 A299 RMK A01 T01810084  RH  053%=      5-min Rain = 0
KCO1 162309Z 05010KT 18/09 A299 RMK A01 T01810085  RH  053%=      5-min Rain = 0
KCO1 162310Z 05011KT 18/09 A299 RMK A01 T01810085  RH  053%=      5-min Rain = 0
KCO1 162311Z 04009KT 18/09 A299 RMK A01 T01810085  RH  053%=      5-min Rain = 0
KCO1 162312Z 06010KT 18/08 A299 RMK A01 T01810084  RH  053%=      5-min Rain = 0
KCO1 162313Z 07010KT 18/08 A299 RMK A01 T01810084  RH  053%=      5-min Rain = 0
KCO1 162314Z 07010KT 18/08 A299 RMK A01 T01810084  RH  053%=      5-min Rain = 0
KCO1 162315Z 07012KT 18/09 A299 RMK A01 T01820085  RH  053%=      5-min Rain = 0
KCO1 162316Z 07013KT 18/08 A299 RMK A01 T01820084  RH  053%=      5-min Rain = 0
KCO1 162317Z 06013KT 18/08 A299 RMK A01 T01820084  RH  053%=      5-min Rain = 0
KCO1 162318Z 06011KT 18/09 A299 RMK A01 T01810085  RH  053%=      5-min Rain = 0
KCO1 162319Z 06009KT 18/08 A299 RMK A01 T01810084  RH  053%=      5-min Rain = 0
KCO1 162320Z 06010KT 18/09 A299 RMK A01 T01810085  RH  053%=      5-min Rain = 0
KCO1 162321Z 06009KT 18/09 A299 RMK A01 T01820085  RH  053%=      5-min Rain = 0
KCO1 162322Z 06009KT 18/09 A299 RMK A01 T01810085  RH  053%=      5-min Rain = 0
KCO1 162323Z 04010KT 18/09 A299 RMK A01 T01810085  RH  053%=      5-min Rain = 0
KCO1 162324Z 04011KT 18/09 A299 RMK A01 T01800085  RH  054%=      5-min Rain = 0
KCO1 162325Z 05011KT 18/09 A299 RMK A01 T01790085  RH  054%=      5-min Rain = 0
KCO1 162326Z 05009KT 18/09 A299 RMK A01 T01780085  RH  054%=      5-min Rain = 0
KCO1 162327Z 06012KT 18/09 A299 RMK A01 T01790086  RH  054%=      5-min Rain = 0
KCO1 162328Z 06009KT 18/09 A299 RMK A01 T01790085  RH  054%=      5-min Rain = 0
KCO1 162329Z 06011KT 18/09 A299 RMK A01 T01800085  RH  054%=      5-min Rain = 0
KCO1 162330Z 06012KT 18/09 A299 RMK A01 T01800085  RH  054%=      5-min Rain = 0
KCO1 162331Z 06013KT 18/08 A299 RMK A01 T01790084  RH  054%=      5-min Rain = 0
KCO1 162332Z 06012KT 18/08 A299 RMK A01 T01780084  RH  054%=      5-min Rain = 0
KCO1 162333Z 06013KT 18/08 A299 RMK A01 T01780084  RH  054%=      5-min Rain = 0
KCO1 162334Z 05013KT 18/08 A299 RMK A01 T01770084  RH  054%=      5-min Rain = 0
KCO1 162335Z 06012KT 18/08 A299 RMK A01 T01770083  RH  054%=      5-min Rain = 0
KCO1 162336Z 06011KT 18/08 A299 RMK A01 T01770084  RH  054%=      5-min Rain = 0
KCO1 162337Z 06010KT 18/08 A299 RMK A01 T01770084  RH  054%=      5-min Rain = 0
KCO1 162338Z 04011KT 18/08 A299 RMK A01 T01770084  RH  054%=      5-min Rain = 0
KCO1 162339Z 05014KT 18/08 A2991 RMK A01 T01770083  RH  054%=      5-min Rain = 0
KCO1 162340Z 05012KT 18/08 A299 RMK A01 T01770083  RH  054%=      5-min Rain = 0
KCO1 162341Z 05013KT 18/08 A2991 RMK A01 T01760083  RH  054%=      5-min Rain = 0
KCO1 162342Z 05011KT 18/08 A299 RMK A01 T01760083  RH  055%=      5-min Rain = 0
KCO1 162343Z 05013KT 18/08 A2991 RMK A01 T01760083  RH  055%=      5-min Rain = 0
KCO1 162344Z 06012KT 18/08 A2991 RMK A01 T01750083  RH  055%=      5-min Rain = 0
KCO1 162345Z 05013KT 18/08 A2991 RMK A01 T01750083  RH  055%=      5-min Rain = 0
KCO1 162346Z 05011KT 18/08 A2991 RMK A01 T01750084  RH  055%=      5-min Rain = 0
KCO1 162347Z 05013KT 18/08 A2991 RMK A01 T01750084  RH  055%=      5-min Rain = 0
KCO1 162348Z 05013KT 17/08 A2991 RMK A01 T01740084  RH  055%=      5-min Rain = 0
KCO1 162349Z 05013KT 17/09 A2991 RMK A01 T01740085  RH  056%=      5-min Rain = 0
KCO1 162350Z 06011KT 17/09 A2991 RMK A01 T01730085  RH  056%=      5-min Rain = 0
KCO1 162351Z 05011KT 17/09 A2991 RMK A01 T01740085  RH  056%=      5-min Rain = 0
KCO1 162352Z 05012KT 18/09 A2991 RMK A01 T01750085  RH  056%=      5-min Rain = 0
KCO1 162353Z 06011KT 18/09 A2991 RMK A01 T01750085  RH  056%=      5-min Rain = 0
KCO1 162354Z 07012KT 18/09 A2991 RMK A01 T01750085  RH  056%=      5-min Rain = 0
KCO1 162355Z 07013KT 17/09 A2991 RMK A01 T01740085  RH  056%=      5-min Rain = 0
KCO1 162356Z 07014KT 17/09 A2991 RMK A01 T01730085  RH  056%=      5-min Rain = 0
KCO1 162357Z 06014KT 17/08 A2991 RMK A01 T01720084  RH  056%=      5-min Rain = 0
KCO1 162358Z 06013KT 17/09 A2991 RMK A01 T01720085  RH  056%=      5-min Rain = 0
KCO1 162359Z 05012KT 17/09 A2991 RMK A01 T01720085  RH  057%=      5-min Rain = 0
KCO1 170000Z 06010KT 17/09 A2991 RMK A01 T01720086  RH  057%=      5-min Rain = 0
KCO1 170001Z 06009KT 17/09 A2991 RMK A01 T01720085  RH  057%=      5-min Rain = 0
KCO1 170002Z 06013KT 17/09 A2991 RMK A01 T01720086  RH  057%=      5-min Rain = 0
KCO1 170003Z 05013KT 17/09 A2991 RMK A01 T01720086  RH  057%=      5-min Rain = 0
KCO1 170004Z 05011KT 17/09 A2991 RMK A01 T01720086  RH  057%=      5-min Rain = 0
KCO1 170005Z 05011KT 17/09 A2991 RMK A01 T01720086  RH  057%=      5-min Rain = 0
KCO1 170006Z 06013KT 17/09 A2991 RMK A01 T01720086  RH  057%=      5-min Rain = 0
KCO1 170007Z 06012KT 17/09 A2991 RMK A01 T01720085  RH  057%=      5-min Rain = 0
KCO1 170008Z 06012KT 17/08 A2991 RMK A01 T01710084  RH  056%=      5-min Rain = 0
KCO1 170009Z 06013KT 17/08 A2991 RMK A01 T01710084  RH  057%=      5-min Rain = 0
KCO1 170010Z 06012KT 17/08 A2991 RMK A01 T01710084  RH  057%=      5-min Rain = 0
KCO1 170011Z 05012KT 17/08 A2991 RMK A01 T01710084  RH  057%=      5-min Rain = 0
KCO1 170012Z 06013KT 17/08 A2992 RMK A01 T01710084  RH  057%=      5-min Rain = 0
KCO1 170013Z 06012KT 17/08 A2992 RMK A01 T01700084  RH  057%=      5-min Rain = 0
KCO1 170014Z 06011KT 17/08 A2992 RMK A01 T01700084  RH  057%=      5-min Rain = 0
KCO1 170015Z 07012KT 17/08 A2992 RMK A01 T01700084  RH  057%=      5-min Rain = 0
KCO1 170016Z 07012KT 17/08 A2992 RMK A01 T01700084  RH  057%=      5-min Rain = 0
KCO1 170017Z 06014KT 17/08 A2992 RMK A01 T01690083  RH  057%=      5-min Rain = 0
KCO1 170018Z 05012KT 17/08 A2992 RMK A01 T01690082  RH  057%=      5-min Rain = 0
KCO1 170019Z 06013KT 17/08 A2992 RMK A01 T01690082  RH  057%=      5-min Rain = 0
KCO1 170020Z 06011KT 17/08 A2992 RMK A01 T01690082  RH  057%=      5-min Rain = 0
KCO1 170021Z 05011KT 17/08 A2992 RMK A01 T01690082  RH  057%=      5-min Rain = 0
KCO1 170022Z 06011KT 17/08 A2992 RMK A01 T01690083  RH  057%=      5-min Rain = 0
KCO1 170023Z 07012KT 17/08 A2992 RMK A01 T01690083  RH  057%=      5-min Rain = 0
KCO1 170024Z 06011KT 17/08 A2992 RMK A01 T01690084  RH  057%=      5-min Rain = 0
KCO1 170025Z 06013KT 17/08 A2992 RMK A01 T01690084  RH  057%=      5-min Rain = 0
KCO1 170026Z 06011KT 17/08 A2992 RMK A01 T01680083  RH  057%=      5-min Rain = 0
KCO1 170027Z 07011KT 17/08 A2992 RMK A01 T01680083  RH  057%=      5-min Rain = 0
KCO1 170028Z 07011G16KT 17/08 A2992 RMK A01 T01680083  RH  057%=      5-min Rain = 0
KCO1 170029Z 07013KT 17/08 A2992 RMK A01 T01680083  RH  057%=      5-min Rain = 0
KCO1 170030Z 07012KT 17/08 A2992 RMK A01 T01670082  RH  057%=      5-min Rain = 0
KCO1 170031Z 07011KT 17/08 A2992 RMK A01 T01660081  RH  057%=      5-min Rain = 0
KCO1 170032Z 08010KT 17/08 A2992 RMK A01 T01660082  RH  057%=      5-min Rain = 0
KCO1 170033Z 07010KT 17/08 A2992 RMK A01 T01660082  RH  057%=      5-min Rain = 0
KCO1 170034Z 07013KT 17/08 A2992 RMK A01 T01660082  RH  057%=      5-min Rain = 0
KCO1 170035Z 07013KT 17/08 A2992 RMK A01 T01660082  RH  057%=      5-min Rain = 0
KCO1 170036Z 07013KT 17/08 A2992 RMK A01 T01650081  RH  057%=      5-min Rain = 0
KCO1 170037Z 07015KT 17/08 A2992 RMK A01 T01650081  RH  058%=      5-min Rain = 0
KCO1 170038Z 07013KT 16/08 A2992 RMK A01 T01640080  RH  058%=      5-min Rain = 0
KCO1 170039Z 07011KT 16/08 A2992 RMK A01 T01640081  RH  058%=      5-min Rain = 0
KCO1 170040Z 06011KT 16/08 A2992 RMK A01 T01630080  RH  058%=      5-min Rain = 0
KCO1 170041Z 07014KT 16/08 A2992 RMK A01 T01630081  RH  058%=      5-min Rain = 0
KCO1 170042Z 07014KT 16/08 A2992 RMK A01 T01630081  RH  058%=      5-min Rain = 0
KCO1 170043Z 07012G17KT 16/08 A2992 RMK A01 T01630081  RH  058%=      5-min Rain = 0
KCO1 170044Z 06014KT 16/08 A2992 RMK A01 T01620080  RH  058%=      5-min Rain = 0
KCO1 170045Z 07012KT 16/08 A2992 RMK A01 T01620080  RH  058%=      5-min Rain = 0
KCO1 170046Z 07013KT 16/08 A2992 RMK A01 T01620081  RH  059%=      5-min Rain = 0
KCO1 170047Z 08014KT 16/08 A2992 RMK A01 T01610080  RH  059%=      5-min Rain = 0
KCO1 170048Z 08013KT 16/08 A2992 RMK A01 T01610081  RH  059%=      5-min Rain = 0
KCO1 170049Z 07014G19KT 16/08 A2992 RMK A01 T01610081  RH  059%=      5-min Rain = 0
KCO1 170050Z 07014KT 16/08 A2992 RMK A01 T01610081  RH  059%=      5-min Rain = 0
KCO1 170051Z 06012KT 16/08 A2992 RMK A01 T01610081  RH  059%=      5-min Rain = 0
KCO1 170052Z 06012KT 16/08 A2992 RMK A01 T01610081  RH  059%=      5-min Rain = 0
KCO1 170053Z 07010KT 16/08 A2992 RMK A01 T01610081  RH  059%=      5-min Rain = 0
KCO1 170054Z 06014KT 16/08 A2993 RMK A01 T01610081  RH  059%=      5-min Rain = 0
KCO1 170055Z 06013KT 16/08 A2993 RMK A01 T01610082  RH  059%=      5-min Rain = 0
KCO1 170056Z 06012KT 16/08 A2993 RMK A01 T01600082  RH  059%=      5-min Rain = 0
KCO1 170057Z 06014KT 16/08 A2993 RMK A01 T01610082  RH  060%=      5-min Rain = 0
KCO1 170058Z 06011KT 16/08 A2993 RMK A01 T01610082  RH  060%=      5-min Rain = 0
KCO1 170059Z 06011G16KT 16/08 A2993 RMK A01 T01610083  RH  060%=      5-min Rain = 0
KCO1 170100Z 06013KT 16/08 A2993 RMK A01 T01600083  RH  060%=      5-min Rain = 0
KCO1 170101Z 06011KT 16/08 A2993 RMK A01 T01600083  RH  060%=      5-min Rain = 0
KCO1 170102Z 06012KT 16/08 A2993 RMK A01 T01600083  RH  060%=      5-min Rain = 0
KCO1 170103Z 07012KT 16/08 A2993 RMK A01 T01600083  RH  060%=      5-min Rain = 0
KCO1 170104Z 07012KT 16/08 A2993 RMK A01 T01600083  RH  060%=      5-min Rain = 0
KCO1 170105Z 07014KT 16/08 A2993 RMK A01 T01590083  RH  060%=      5-min Rain = 0
KCO1 170106Z 07012KT 16/08 A2993 RMK A01 T01590083  RH  061%=      5-min Rain = 0
KCO1 170107Z 07013KT 16/08 A2993 RMK A01 T01590083  RH  061%=      5-min Rain = 0
KCO1 170108Z 07013KT 16/08 A2994 RMK A01 T01590084  RH  061%=      5-min Rain = 0
KCO1 170109Z 07012KT 16/08 A2994 RMK A01 T01580083  RH  061%=      5-min Rain = 0
KCO1 170110Z 07012KT 16/08 A2994 RMK A01 T01580084  RH  061%=      5-min Rain = 0
KCO1 170111Z 06014KT 16/08 A2994 RMK A01 T01580084  RH  061%=      5-min Rain = 0
KCO1 170112Z 06013KT 16/08 A2994 RMK A01 T01580084  RH  061%=      5-min Rain = 0
KCO1 170113Z 06013KT 16/08 A2994 RMK A01 T01580084  RH  061%=      5-min Rain = 0
KCO1 170114Z 06011G16KT 16/08 A2994 RMK A01 T01580084  RH  062%=      5-min Rain = 0
KCO1 170115Z 06011KT 16/08 A2994 RMK A01 T01580084  RH  061%=      5-min Rain = 0
KCO1 170116Z 07010KT 16/08 A2994 RMK A01 T01570083  RH  061%=      5-min Rain = 0
KCO1 170117Z 06012KT 16/08 A2994 RMK A01 T01580084  RH  061%=      5-min Rain = 0
KCO1 170118Z 06012KT 16/08 A2994 RMK A01 T01580084  RH  061%=      5-min Rain = 0
KCO1 170119Z 07013KT 16/08 A2994 RMK A01 T01570083  RH  062%=      5-min Rain = 0
KCO1 170120Z 07013KT 16/08 A2994 RMK A01 T01570083  RH  062%=      5-min Rain = 0
KCO1 170121Z 07012KT 16/08 A2994 RMK A01 T01570083  RH  062%=      5-min Rain = 0
KCO1 170122Z 07012KT 16/08 A2994 RMK A01 T01560083  RH  062%=      5-min Rain = 0
KCO1 170123Z 07009G15KT 16/08 A2994 RMK A01 T01570084  RH  062%=      5-min Rain = 0
KCO1 170124Z 07011KT 16/08 A2994 RMK A01 T01560083  RH  062%=      5-min Rain = 0
KCO1 170125Z 07011G16KT 16/08 A2994 RMK A01 T01560083  RH  062%=      5-min Rain = 0
KCO1 170126Z 08013KT 16/08 A2994 RMK A01 T01560083  RH  062%=      5-min Rain = 0
KCO1 170127Z 07013KT 16/08 A2994 RMK A01 T01560084  RH  062%=      5-min Rain = 0
KCO1 170128Z 07013KT 16/08 A2994 RMK A01 T01560084  RH  062%=      5-min Rain = 0
KCO1 170129Z 07012KT 16/08 A2994 RMK A01 T01560084  RH  062%=      5-min Rain = 0
KCO1 170130Z 07013KT 16/08 A2994 RMK A01 T01550084  RH  062%=      5-min Rain = 0
KCO1 170131Z 07012KT 16/08 A2994 RMK A01 T01550084  RH  062%=      5-min Rain = 0
KCO1 170132Z 07013KT 16/08 A2994 RMK A01 T01550084  RH  062%=      5-min Rain = 0
KCO1 170133Z 07011KT 16/08 A2994 RMK A01 T01550084  RH  062%=      5-min Rain = 0
KCO1 170134Z 07012KT 16/08 A2994 RMK A01 T01550083  RH  062%=      5-min Rain = 0
KCO1 170135Z 07010KT 16/08 A2995 RMK A01 T01550084  RH  063%=      5-min Rain = 0
KCO1 170136Z 07012KT 16/08 A2995 RMK A01 T01550084  RH  063%=      5-min Rain = 0
KCO1 170137Z 07010KT 16/08 A2995 RMK A01 T01550084  RH  063%=      5-min Rain = 0
KCO1 170138Z 07011KT 15/08 A2995 RMK A01 T01540084  RH  063%=      5-min Rain = 0
KCO1 170139Z 08010KT 15/08 A2995 RMK A01 T01540084  RH  063%=      5-min Rain = 0
KCO1 170140Z 08011KT 15/08 A2995 RMK A01 T01540084  RH  063%=      5-min Rain = 0
KCO1 170141Z 08013KT 15/08 A2995 RMK A01 T01530084  RH  063%=      5-min Rain = 0
KCO1 170142Z 07012KT 15/08 A2996 RMK A01 T01530084  RH  063%=      5-min Rain = 0
KCO1 170143Z 07012KT 15/08 A2996 RMK A01 T01530084  RH  063%=      5-min Rain = 0
KCO1 170144Z 06014KT 15/08 A2996 RMK A01 T01530084  RH  063%=      5-min Rain = 0
KCO1 170145Z 07014KT 15/08 A2996 RMK A01 T01530084  RH  063%=      5-min Rain = 0
KCO1 170146Z 07012KT 15/09 A2996 RMK A01 T01530085  RH  063%=      5-min Rain = 0
KCO1 170147Z 07013KT 15/08 A2996 RMK A01 T01530084  RH  064%=      5-min Rain = 0
KCO1 170148Z 07012KT 15/09 A2996 RMK A01 T01530085  RH  064%=      5-min Rain = 0
KCO1 170149Z 07013G18KT 15/09 A2996 RMK A01 T01530085  RH  064%=      5-min Rain = 0
KCO1 170150Z 07012KT 15/09 A2996 RMK A01 T01520085  RH  064%=      5-min Rain = 0
KCO1 170151Z 06014KT 15/09 A2996 RMK A01 T01520085  RH  064%=      5-min Rain = 0
KCO1 170152Z 06015KT 15/08 A2996 RMK A01 T01520084  RH  064%=      5-min Rain = 0
KCO1 170153Z 07014KT 15/08 A2996 RMK A01 T01520084  RH  064%=      5-min Rain = 0
KCO1 170154Z 08012KT 15/09 A2996 RMK A01 T01520085  RH  064%=      5-min Rain = 0
KCO1 170155Z 08008G13KT 15/08 A2997 RMK A01 T01520084  RH  064%=      5-min Rain = 0
KCO1 170156Z 08011KT 15/09 A2997 RMK A01 T01520085  RH  064%=      5-min Rain = 0
KCO1 170157Z 07012KT 15/09 A2997 RMK A01 T01520085  RH  064%=      5-min Rain = 0
KCO1 170158Z 07012KT 15/09 A2997 RMK A01 T01520085  RH  064%=      5-min Rain = 0
KCO1 170159Z 07012KT 15/08 A2997 RMK A01 T01520084  RH  064%=      5-min Rain = 0
KCO1 170200Z 07014KT 15/09 A2997 RMK A01 T01520085  RH  064%=      5-min Rain = 0
KCO1 170201Z 07012KT 15/09 A2997 RMK A01 T01520085  RH  064%=      5-min Rain = 0
KCO1 170202Z 07012KT 15/09 A2997 RMK A01 T01520085  RH  064%=      5-min Rain = 0
KCO1 170203Z 07013G18KT 15/09 A2997 RMK A01 T01520085  RH  064%=      5-min Rain = 0
KCO1 170204Z 08010KT 15/09 A2997 RMK A01 T01510085  RH  064%=      5-min Rain = 0
KCO1 170205Z 08011KT 15/09 A2997 RMK A01 T01520085  RH  064%=      5-min Rain = 0
KCO1 170206Z 08012KT 15/09 A2998 RMK A01 T01510085  RH  064%=      5-min Rain = 0
KCO1 170207Z 07010KT 15/09 A2998 RMK A01 T01520085  RH  064%=      5-min Rain = 0
KCO1 170208Z 07008KT 15/09 A2998 RMK A01 T01510085  RH  064%=      5-min Rain = 0
KCO1 170209Z 07009KT 15/09 A2998 RMK A01 T01520085  RH  064%=      5-min Rain = 0
KCO1 170210Z 06011G16KT 15/09 A2999 RMK A01 T01510085  RH  065%=      5-min Rain = 0
KCO1 170211Z 07013KT 15/09 A2999 RMK A01 T01510085  RH  065%=      5-min Rain = 0
KCO1 170212Z 06010KT 15/09 A2999 RMK A01 T01510086  RH  065%=      5-min Rain = 0
KCO1 170213Z 06013KT 15/09 A30 RMK A01 T01510086  RH  065%=      5-min Rain = 0
KCO1 170214Z 07014KT 15/09 A30 RMK A01 T01510086  RH  065%=      5-min Rain = 0
KCO1 170215Z 06012KT 15/09 A30 RMK A01 T01510086  RH  065%=      5-min Rain = 0
KCO1 170216Z 06014G20KT 15/09 A30 RMK A01 T01510086  RH  065%=      5-min Rain = 0
KCO1 170217Z 06016KT 15/09 A30 RMK A01 T01510086  RH  065%=      5-min Rain = 0
KCO1 170218Z 06018KT 15/09 A3001 RMK A01 T01500086  RH  065%=      5-min Rain = 0
KCO1 170219Z 06014KT 15/09 A30 RMK A01 T01500085  RH  065%=      5-min Rain = 0
KCO1 170220Z 06016KT 15/09 A30 RMK A01 T01490085  RH  066%=      5-min Rain = 0
KCO1 170221Z 06013KT 15/09 A30 RMK A01 T01490085  RH  066%=      5-min Rain = 0
KCO1 170222Z 06013G18KT 15/09 A30 RMK A01 T01490085  RH  066%=      5-min Rain = 0
KCO1 170223Z 06014KT 15/09 A3001 RMK A01 T01480085  RH  066%=      5-min Rain = 0
KCO1 170224Z 06014G19KT 15/09 A3001 RMK A01 T01480085  RH  066%=      5-min Rain = 0
KCO1 170225Z 06014KT 15/08 A3001 RMK A01 T01470084  RH  066%=      5-min Rain = 0
KCO1 170226Z 06017KT 15/08 A3001 RMK A01 T01460084  RH  066%=      5-min Rain = 0
KCO1 170227Z 07012KT 15/08 A3001 RMK A01 T01460084  RH  066%=      5-min Rain = 0
KCO1 170228Z 06012KT 15/08 A3001 RMK A01 T01450084  RH  067%=      5-min Rain = 0
KCO1 170229Z 06014KT 15/08 A3001 RMK A01 T01450084  RH  067%=      5-min Rain = 0
KCO1 170230Z 06014KT 15/08 A3001 RMK A01 T01450084  RH  067%=      5-min Rain = 0
KCO1 170231Z 07010KT 14/08 A3001 RMK A01 T01440084  RH  067%=      5-min Rain = 0
KCO1 170232Z 07010KT 14/08 A3001 RMK A01 T01440084  RH  067%=      5-min Rain = 0
KCO1 170233Z 08010KT 14/08 A3001 RMK A01 T01440084  RH  067%=      5-min Rain = 0
KCO1 170234Z 08010KT 14/08 A3001 RMK A01 T01440084  RH  067%=      5-min Rain = 0
KCO1 170235Z 09014KT 14/08 A3001 RMK A01 T01430084  RH  067%=      5-min Rain = 0
KCO1 170236Z 08013KT 14/08 A3001 RMK A01 T01430084  RH  068%=      5-min Rain = 0
KCO1 170237Z 09013KT 14/08 A3001 RMK A01 T01420084  RH  068%=      5-min Rain = 0
KCO1 170238Z 08013KT 14/08 A3001 RMK A01 T01420084  RH  068%=      5-min Rain = 0
KCO1 170239Z 08011KT 14/08 A3001 RMK A01 T01420084  RH  068%=      5-min Rain = 0
KCO1 170240Z 08011KT 14/08 A3001 RMK A01 T01420084  RH  068%=      5-min Rain = 0
KCO1 170241Z 09010KT 14/08 A3001 RMK A01 T01410084  RH  068%=      5-min Rain = 0
KCO1 170242Z 08013KT 14/08 A3001 RMK A01 T01410083  RH  068%=      5-min Rain = 0
KCO1 170243Z 09013KT 14/08 A3002 RMK A01 T01400083  RH  068%=      5-min Rain = 0
KCO1 170244Z 09014KT 14/08 A3002 RMK A01 T01400083  RH  069%=      5-min Rain = 0
KCO1 170245Z 08012KT 14/08 A3002 RMK A01 T01390083  RH  069%=      5-min Rain = 0
KCO1 170246Z 08013KT 14/08 A3002 RMK A01 T01390083  RH  069%=      5-min Rain = 0
KCO1 170247Z 08014KT 14/08 A3002 RMK A01 T01390083  RH  069%=      5-min Rain = 0
KCO1 170248Z 08013KT 14/08 A3002 RMK A01 T01390083  RH  069%=      5-min Rain = 0
KCO1 170249Z 07013KT 14/08 A3002 RMK A01 T01380083  RH  069%=      5-min Rain = 0
KCO1 170250Z 08013KT 14/08 A3002 RMK A01 T01380083  RH  069%=      5-min Rain = 0
KCO1 170251Z 08013KT 14/08 A3002 RMK A01 T01380083  RH  069%=      5-min Rain = 0
KCO1 170252Z 07012KT 14/08 A3002 RMK A01 T01370083  RH  070%=      5-min Rain = 0
KCO1 170253Z 07012KT 14/08 A3002 RMK A01 T01370083  RH  070%=      5-min Rain = 0
KCO1 170254Z 07013KT 14/08 A3003 RMK A01 T01370083  RH  070%=      5-min Rain = 0
KCO1 170255Z 08013KT 14/08 A3003 RMK A01 T01360083  RH  070%=      5-min Rain = 0
KCO1 170256Z 07011KT 14/08 A3003 RMK A01 T01360083  RH  070%=      5-min Rain = 0
KCO1 170257Z 07010KT 14/08 A3003 RMK A01 T01360083  RH  070%=      5-min Rain = 0
KCO1 170258Z 07009KT 14/08 A3003 RMK A01 T01360082  RH  070%=      5-min Rain = 0
KCO1 170259Z 07010KT 14/08 A3003 RMK A01 T01350082  RH  070%=      5-min Rain = 0
KCO1 170300Z 07013KT 14/08 A3003 RMK A01 T01350082  RH  070%=      5-min Rain = 0
KCO1 170301Z 07011KT 14/08 A3003 RMK A01 T01350082  RH  070%=      5-min Rain = 0
KCO1 170302Z 08009KT 14/08 A3003 RMK A01 T01350082  RH  070%=      5-min Rain = 0
KCO1 170303Z 07009KT 13/08 A3003 RMK A01 T01340082  RH  070%=      5-min Rain = 0
KCO1 170304Z 06011KT 13/08 A3003 RMK A01 T01340081  RH  070%=      5-min Rain = 0
KCO1 170305Z 07011KT 13/08 A3003 RMK A01 T01340081  RH  070%=      5-min Rain = 0
KCO1 170306Z 07014KT 13/08 A3003 RMK A01 T01330079  RH  070%=      5-min Rain = 0
KCO1 170307Z 07016KT 13/08 A3003 RMK A01 T01340078  RH  069%=      5-min Rain = 0
KCO1 170308Z 07015KT 13/08 A3004 RMK A01 T01340077  RH  068%=      5-min Rain = 0
KCO1 170309Z 07015KT 13/08 A3004 RMK A01 T01330076  RH  068%=      5-min Rain = 0
KCO1 170310Z 07013KT 13/08 A3004 RMK A01 T01330075  RH  068%=      5-min Rain = 0
KCO1 170311Z 07012KT 13/08 A3004 RMK A01 T01330075  RH  068%=      5-min Rain = 0
KCO1 170312Z 07010KT 13/08 A3003 RMK A01 T01320075  RH  068%=      5-min Rain = 0
KCO1 170313Z 07011KT 13/08 A3003 RMK A01 T01320075  RH  068%=      5-min Rain = 0
KCO1 170314Z 07014KT 13/08 A3004 RMK A01 T01320075  RH  069%=      5-min Rain = 0
KCO1 170315Z 07014KT 13/08 A3004 RMK A01 T01310075  RH  069%=      5-min Rain = 0
KCO1 170316Z 07014KT 13/08 A3004 RMK A01 T01320076  RH  069%=      5-min Rain = 0
KCO1 170317Z 07012KT 13/08 A3004 RMK A01 T01320076  RH  069%=      5-min Rain = 0
KCO1 170318Z 07009KT 13/08 A3004 RMK A01 T01320076  RH  069%=      5-min Rain = 0
KCO1 170319Z 07014KT 13/08 A3004 RMK A01 T01320076  RH  069%=      5-min Rain = 0
KCO1 170320Z 08012KT 13/08 A3004 RMK A01 T01310076  RH  069%=      5-min Rain = 0
KCO1 170321Z 08014KT 13/08 A3004 RMK A01 T01310076  RH  069%=      5-min Rain = 0
KCO1 170322Z 08011KT 13/08 A3004 RMK A01 T01300075  RH  069%=      5-min Rain = 0
KCO1 170323Z 07013KT 13/08 A3004 RMK A01 T01300075  RH  069%=      5-min Rain = 0
KCO1 170324Z 08013KT 13/08 A3005 RMK A01 T01300075  RH  069%=      5-min Rain = 0
KCO1 170325Z 07011KT 13/07 A3005 RMK A01 T01290074  RH  069%=      5-min Rain = 0
KCO1 170326Z 07012KT 13/08 A3004 RMK A01 T01300075  RH  069%=      5-min Rain = 0
KCO1 170327Z 08013KT 13/08 A3004 RMK A01 T01290075  RH  069%=      5-min Rain = 0
KCO1 170328Z 08014KT 13/08 A3004 RMK A01 T01290075  RH  070%=      5-min Rain = 0
KCO1 170329Z 08011KT 13/08 A3004 RMK A01 T01290075  RH  070%=      5-min Rain = 0
KCO1 170330Z 08011KT 13/08 A3004 RMK A01 T01290075  RH  070%=      5-min Rain = 0
KCO1 170331Z 09012G17KT 13/08 A3004 RMK A01 T01290075  RH  070%=      5-min Rain = 0
KCO1 170332Z 09014KT 13/08 A3004 RMK A01 T01280075  RH  070%=      5-min Rain = 0
KCO1 170333Z 08015KT 13/07 A3004 RMK A01 T01280074  RH  070%=      5-min Rain = 0
KCO1 170334Z 08012KT 13/07 A3005 RMK A01 T01280074  RH  070%=      5-min Rain = 0
KCO1 170335Z 08010KT 13/07 A3005 RMK A01 T01280074  RH  070%=      5-min Rain = 0
KCO1 170336Z 08009KT 13/07 A3005 RMK A01 T01280074  RH  070%=      5-min Rain = 0
KCO1 170337Z 08013KT 13/07 A3005 RMK A01 T01280073  RH  070%=      5-min Rain = 0
KCO1 170338Z 07012KT 13/07 A3005 RMK A01 T01270073  RH  069%=      5-min Rain = 0
KCO1 170339Z 08014KT 13/07 A3005 RMK A01 T01270073  RH  069%=      5-min Rain = 0
KCO1 170340Z 08014KT 13/07 A3005 RMK A01 T01270072  RH  069%=      5-min Rain = 0
KCO1 170341Z 08012KT 13/07 A3005 RMK A01 T01270072  RH  069%=      5-min Rain = 0
KCO1 170342Z 07012KT 13/07 A3005 RMK A01 T01270072  RH  069%=      5-min Rain = 0
KCO1 170343Z 07012KT 13/07 A3005 RMK A01 T01270072  RH  069%=      5-min Rain = 0
KCO1 170344Z 08010KT 13/07 A3005 RMK A01 T01260072  RH  069%=      5-min Rain = 0
KCO1 170345Z 08010KT 13/07 A3005 RMK A01 T01260071  RH  069%=      5-min Rain = 0
KCO1 170346Z 07013KT 13/07 A3005 RMK A01 T01260072  RH  070%=      5-min Rain = 0
KCO1 170347Z 08013KT 13/07 A3005 RMK A01 T01250071  RH  070%=      5-min Rain = 0
KCO1 170348Z 07016KT 13/07 A3006 RMK A01 T01250071  RH  070%=      5-min Rain = 0
KCO1 170349Z 07016G21KT 13/07 A3006 RMK A01 T01250070  RH  069%=      5-min Rain = 0
KCO1 170350Z 07016KT 13/07 A3006 RMK A01 T01250070  RH  069%=      5-min Rain = 0
KCO1 170351Z 07011KT 12/07 A3006 RMK A01 T01240069  RH  069%=      5-min Rain = 0
KCO1 170352Z 07010KT 12/07 A3006 RMK A01 T01240069  RH  069%=      5-min Rain = 0
KCO1 170353Z 07012KT 12/07 A3006 RMK A01 T01230069  RH  069%=      5-min Rain = 0
KCO1 170354Z 07014KT 12/07 A3006 RMK A01 T01240069  RH  069%=      5-min Rain = 0
KCO1 170355Z 07012KT 12/07 A3006 RMK A01 T01230069  RH  069%=      5-min Rain = 0
KCO1 170356Z 07013KT 12/07 A3006 RMK A01 T01230069  RH  070%=      5-min Rain = 0
KCO1 170357Z 07013KT 12/07 A3006 RMK A01 T01230069  RH  070%=      5-min Rain = 0
KCO1 170358Z 07013KT 12/07 A3006 RMK A01 T01230069  RH  070%=      5-min Rain = 0
KCO1 170359Z 07011KT 12/07 A3006 RMK A01 T01230070  RH  070%=      5-min Rain = 0
KCO1 170400Z 07011KT 12/07 A3006 RMK A01 T01230070  RH  070%=      5-min Rain = 0
KCO1 170401Z 07011KT 12/07 A3006 RMK A01 T01230070  RH  070%=      5-min Rain = 0
KCO1 170402Z 07010KT 12/07 A3007 RMK A01 T01230070  RH  070%=      5-min Rain = 0
KCO1 170403Z 08010KT 12/07 A3007 RMK A01 T01220069  RH  070%=      5-min Rain = 0
KCO1 170404Z 08012KT 12/07 A3007 RMK A01 T01220069  RH  070%=      5-min Rain = 0
KCO1 170405Z 07011KT 12/07 A3006 RMK A01 T01220069  RH  070%=      5-min Rain = 0
KCO1 170406Z 07013KT 12/07 A3007 RMK A01 T01210068  RH  070%=      5-min Rain = 0
KCO1 170407Z 07011KT 12/07 A3007 RMK A01 T01220068  RH  070%=      5-min Rain = 0
KCO1 170408Z 07010G15KT 12/07 A3007 RMK A01 T01220068  RH  070%=      5-min Rain = 0
KCO1 170409Z 08011KT 12/07 A3007 RMK A01 T01220068  RH  070%=      5-min Rain = 0
KCO1 170410Z 08011KT 12/07 A3007 RMK A01 T01220068  RH  070%=      5-min Rain = 0
KCO1 170411Z 09010KT 12/07 A3007 RMK A01 T01220068  RH  070%=      5-min Rain = 0
KCO1 170412Z 08011KT 12/07 A3007 RMK A01 T01210068  RH  070%=      5-min Rain = 0
KCO1 170413Z 08013KT 12/07 A3007 RMK A01 T01210069  RH  070%=      5-min Rain = 0
KCO1 170414Z 08011KT 12/07 A3007 RMK A01 T01220069  RH  070%=      5-min Rain = 0
KCO1 170415Z 08014KT 12/07 A3007 RMK A01 T01210069  RH  070%=      5-min Rain = 0
KCO1 170416Z 08013KT 12/07 A3007 RMK A01 T01210069  RH  070%=      5-min Rain = 0
KCO1 170417Z 08011KT 12/07 A3007 RMK A01 T01210069  RH  070%=      5-min Rain = 0
KCO1 170418Z 07010KT 12/07 A3007 RMK A01 T01210069  RH  070%=      5-min Rain = 0
KCO1 170419Z 08012KT 12/07 A3007 RMK A01 T01210069  RH  070%=      5-min Rain = 0
KCO1 170420Z 09010KT 12/07 A3007 RMK A01 T01210069  RH  071%=      5-min Rain = 0
KCO1 170421Z 08010KT 12/07 A3007 RMK A01 T01200069  RH  071%=      5-min Rain = 0
KCO1 170422Z 09012KT 12/07 A3007 RMK A01 T01200069  RH  071%=      5-min Rain = 0
KCO1 170423Z 09010KT 12/07 A3007 RMK A01 T01200068  RH  071%=      5-min Rain = 0
KCO1 170424Z 08012G17KT 12/07 A3008 RMK A01 T01190068  RH  071%=      5-min Rain = 0
KCO1 170425Z 08014KT 12/07 A3008 RMK A01 T01190066  RH  070%=      5-min Rain = 0
KCO1 170426Z 08012KT 12/07 A3008 RMK A01 T01190065  RH  070%=      5-min Rain = 0
KCO1 170427Z 07011KT 12/07 A3008 RMK A01 T01190065  RH  069%=      5-min Rain = 0
KCO1 170428Z 07012KT 12/07 A3008 RMK A01 T01180065  RH  070%=      5-min Rain = 0
KCO1 170429Z 07010KT 12/06 A3008 RMK A01 T01180064  RH  069%=      5-min Rain = 0
KCO1 170430Z 08013G18KT 12/06 A3007 RMK A01 T01180063  RH  069%=      5-min Rain = 0
KCO1 170431Z 08013KT 12/06 A3007 RMK A01 T01180063  RH  069%=      5-min Rain = 0
KCO1 170432Z 07016KT 12/06 A3008 RMK A01 T01180063  RH  069%=      5-min Rain = 0
KCO1 170433Z 07016KT 12/06 A3007 RMK A01 T01180062  RH  069%=      5-min Rain = 0
KCO1 170434Z 08015G20KT 12/06 A3008 RMK A01 T01180062  RH  069%=      5-min Rain = 0
KCO1 170435Z 09014KT 12/06 A3007 RMK A01 T01180062  RH  069%=      5-min Rain = 0
KCO1 170436Z 08013KT 12/06 A3007 RMK A01 T01180062  RH  069%=      5-min Rain = 0
KCO1 170437Z 08011KT 12/06 A3007 RMK A01 T01170063  RH  069%=      5-min Rain = 0
KCO1 170438Z 08013KT 12/06 A3007 RMK A01 T01170063  RH  069%=      5-min Rain = 0
KCO1 170439Z 09012KT 12/06 A3007 RMK A01 T01170063  RH  070%=      5-min Rain = 0
KCO1 170440Z 09012KT 12/06 A3007 RMK A01 T01160063  RH  070%=      5-min Rain = 0
KCO1 170441Z 08009KT 12/06 A3007 RMK A01 T01160063  RH  070%=      5-min Rain = 0
KCO1 170442Z 08012KT 12/06 A3007 RMK A01 T01160063  RH  070%=      5-min Rain = 0
KCO1 170443Z 09012G17KT 12/06 A3007 RMK A01 T01150063  RH  070%=      5-min Rain = 0
KCO1 170444Z 08012KT 12/06 A3007 RMK A01 T01150062  RH  070%=      5-min Rain = 0
KCO1 170445Z 08011KT 12/06 A3007 RMK A01 T01150062  RH  070%=      5-min Rain = 0
KCO1 170446Z 07010KT 12/06 A3008 RMK A01 T01150061  RH  070%=      5-min Rain = 0
KCO1 170447Z 08012KT 12/06 A3008 RMK A01 T01150061  RH  070%=      5-min Rain = 0
KCO1 170448Z 08012KT 12/06 A3008 RMK A01 T01150061  RH  069%=      5-min Rain = 0
KCO1 170449Z 08011KT 11/06 A3008 RMK A01 T01140060  RH  069%=      5-min Rain = 0
KCO1 170450Z 08010KT 11/06 A3008 RMK A01 T01140060  RH  069%=      5-min Rain = 0
KCO1 170451Z 08011KT 11/06 A3009 RMK A01 T01140060  RH  070%=      5-min Rain = 0
KCO1 170452Z 08011KT 11/06 A3009 RMK A01 T01140060  RH  070%=      5-min Rain = 0
KCO1 170453Z 08010KT 11/06 A3009 RMK A01 T01130059  RH  070%=      5-min Rain = 0
KCO1 170454Z 08012G17KT 11/06 A3009 RMK A01 T01130059  RH  070%=      5-min Rain = 0
KCO1 170455Z 08016KT 11/06 A3009 RMK A01 T01130059  RH  069%=      5-min Rain = 0
KCO1 170456Z 08014KT 11/06 A3009 RMK A01 T01130059  RH  069%=      5-min Rain = 0
KCO1 170457Z 08012KT 11/06 A3009 RMK A01 T01130059  RH  069%=      5-min Rain = 0
KCO1 170458Z 08010KT 11/06 A3008 RMK A01 T01130059  RH  069%=      5-min Rain = 0
KCO1 170459Z 08012KT 11/06 A3008 RMK A01 T01130059  RH  069%=      5-min Rain = 0

Page generated in 0.063 seconds.